KAL31 RKSI-KDFW
Flight info
| Callsign | KAL31 |
|---|---|
| Flight time | 12h 20m |
| Altitude | 33000 |
| Route | EGOBA2H EGOBA Y697 LANAT Y51 SAMON Y142 GTC Y512 OATIS Y889 PUTER A590 POXED/N0490F340 A590 POWAL/N0491F330 R451 AAMYY/N0493F350 52N180E 53N170W 54N160W 54N150W 53N140W/N0478F370 MANJO 50N130W TOU 46N120W 41N110W 35N100W MDANO JOVEM6 |
| Aircraft | B77W/H-SDE1E2E3FGHIJ2J3J4J5M1RWXY/LB1D1 |
Departure
| Time | 2026-05-07 06:37 |
|---|---|
| Airport | Incheon International Airport (RKSI) |
Arrival
| Time | 2026-05-07 18:57 |
|---|---|
| Airport | Dallas Fort Worth International Airport (KDFW) |
| Time | Latitude | Longitude | Altitude | Speed | Heading |
|---|---|---|---|---|---|
| 2026-05-07 06:07 | 37.46322 | 126.43200 | 38 ft | 0 kts | 69° |
| 2026-05-07 06:24 | 37.46314 | 126.43172 | 36 ft | 4 kts | 70° |
| 2026-05-07 06:25 | 37.46304 | 126.43141 | 36 ft | 4 kts | 68° |
| 2026-05-07 06:25 | 37.46294 | 126.43111 | 36 ft | 3 kts | 61° |
| 2026-05-07 06:25 | 37.46285 | 126.43095 | 35 ft | 2 kts | 24° |
| 2026-05-07 06:25 | 37.46272 | 126.43094 | 36 ft | 3 kts | 339° |
| 2026-05-07 06:26 | 37.46251 | 126.43106 | 36 ft | 2 kts | 336° |
| 2026-05-07 06:26 | 37.46241 | 126.43111 | 36 ft | 1 kts | 336° |
| 2026-05-07 06:28 | 37.46242 | 126.43111 | 35 ft | 1 kts | 336° |
| 2026-05-07 06:29 | 37.46272 | 126.43093 | 36 ft | 9 kts | 335° |
| 2026-05-07 06:29 | 37.46342 | 126.43038 | 37 ft | 13 kts | 306° |
| 2026-05-07 06:29 | 37.46321 | 126.42932 | 37 ft | 13 kts | 233° |
| 2026-05-07 06:29 | 37.46306 | 126.42841 | 37 ft | 10 kts | 309° |
| 2026-05-07 06:30 | 37.46363 | 126.42793 | 37 ft | 10 kts | 326° |
| 2026-05-07 06:30 | 37.46419 | 126.42743 | 37 ft | 10 kts | 324° |
| 2026-05-07 06:30 | 37.46475 | 126.42694 | 37 ft | 10 kts | 324° |
| 2026-05-07 06:30 | 37.46531 | 126.42644 | 37 ft | 10 kts | 324° |
| 2026-05-07 06:31 | 37.46587 | 126.42594 | 37 ft | 10 kts | 324° |
| 2026-05-07 06:31 | 37.46643 | 126.42544 | 37 ft | 10 kts | 324° |
| 2026-05-07 06:31 | 37.46698 | 126.42494 | 38 ft | 10 kts | 324° |
| 2026-05-07 06:31 | 37.46754 | 126.42444 | 38 ft | 10 kts | 324° |
| 2026-05-07 06:32 | 37.46810 | 126.42394 | 38 ft | 10 kts | 324° |
| 2026-05-07 06:32 | 37.46866 | 126.42344 | 38 ft | 10 kts | 324° |
| 2026-05-07 06:32 | 37.46922 | 126.42295 | 38 ft | 10 kts | 324° |
| 2026-05-07 06:32 | 37.46978 | 126.42245 | 38 ft | 10 kts | 324° |
| 2026-05-07 06:33 | 37.47034 | 126.42195 | 37 ft | 10 kts | 324° |
| 2026-05-07 06:33 | 37.47090 | 126.42145 | 38 ft | 10 kts | 324° |
| 2026-05-07 06:33 | 37.47146 | 126.42095 | 38 ft | 10 kts | 324° |
| 2026-05-07 06:33 | 37.47202 | 126.42045 | 38 ft | 10 kts | 324° |
| 2026-05-07 06:34 | 37.47257 | 126.41996 | 38 ft | 10 kts | 324° |
| 2026-05-07 06:34 | 37.47314 | 126.41946 | 38 ft | 10 kts | 325° |
| 2026-05-07 06:34 | 37.47369 | 126.41897 | 38 ft | 10 kts | 325° |
| 2026-05-07 06:34 | 37.47403 | 126.41826 | 38 ft | 10 kts | 268° |
| 2026-05-07 06:35 | 37.47369 | 126.41749 | 38 ft | 10 kts | 233° |
| 2026-05-07 06:35 | 37.47327 | 126.41676 | 38 ft | 10 kts | 233° |
| 2026-05-07 06:35 | 37.47285 | 126.41602 | 38 ft | 10 kts | 230° |
| 2026-05-07 06:35 | 37.47221 | 126.41612 | 38 ft | 11 kts | 142° |
| 2026-05-07 06:36 | 37.47117 | 126.41705 | 38 ft | 31 kts | 145° |
| 2026-05-07 06:36 | 37.46765 | 126.42017 | 38 ft | 93 kts | 145° |
| 2026-05-07 06:36 | 37.46079 | 126.42628 | 36 ft | 148 kts | 145° |
| 2026-05-07 06:36 | 37.45110 | 126.43483 | 40 ft | 189 kts | 147° |
| 2026-05-07 06:37 | 37.43993 | 126.44491 | 320 ft | 200 kts | 147° |
| 2026-05-07 06:37 | 37.42834 | 126.45516 | 723 ft | 205 kts | 150° |
| 2026-05-07 06:37 | 37.41553 | 126.46400 | 1156 ft | 215 kts | 159° |
| 2026-05-07 06:37 | 37.40191 | 126.47261 | 1627 ft | 222 kts | 156° |
| 2026-05-07 06:38 | 37.38806 | 126.48216 | 1945 ft | 236 kts | 153° |
| 2026-05-07 06:38 | 37.37270 | 126.49013 | 2175 ft | 242 kts | 171° |
| 2026-05-07 06:38 | 37.35612 | 126.49470 | 2587 ft | 253 kts | 169° |
| 2026-05-07 06:38 | 37.33870 | 126.50030 | 3085 ft | 263 kts | 168° |
| 2026-05-07 06:39 | 37.32080 | 126.50627 | 3653 ft | 266 kts | 169° |
| 2026-05-07 06:39 | 37.30280 | 126.51250 | 4253 ft | 270 kts | 166° |
| 2026-05-07 06:39 | 37.28635 | 126.52448 | 4669 ft | 285 kts | 135° |
| 2026-05-07 06:39 | 37.27724 | 126.54651 | 5266 ft | 290 kts | 102° |
| 2026-05-07 06:40 | 37.27501 | 126.57173 | 5737 ft | 293 kts | 96° |
| 2026-05-07 06:40 | 37.27325 | 126.59771 | 6199 ft | 302 kts | 96° |
| 2026-05-07 06:40 | 37.27134 | 126.62413 | 6722 ft | 306 kts | 96° |
| 2026-05-07 06:40 | 37.27099 | 126.65088 | 7286 ft | 309 kts | 88° |
| 2026-05-07 06:41 | 37.27258 | 126.67782 | 7850 ft | 311 kts | 85° |
| 2026-05-07 06:41 | 37.27454 | 126.70505 | 8373 ft | 316 kts | 86° |
| 2026-05-07 06:41 | 37.27644 | 126.73288 | 8810 ft | 323 kts | 86° |
| 2026-05-07 06:41 | 37.27821 | 126.76111 | 9340 ft | 326 kts | 88° |
| 2026-05-07 06:42 | 37.27987 | 126.78955 | 9887 ft | 329 kts | 88° |
| 2026-05-07 06:42 | 37.28146 | 126.81839 | 9974 ft | 333 kts | 88° |
| 2026-05-07 06:42 | 37.28302 | 126.84732 | 10028 ft | 342 kts | 88° |
| 2026-05-07 06:42 | 37.28464 | 126.87828 | 10181 ft | 360 kts | 88° |
| 2026-05-07 06:43 | 37.28660 | 126.91058 | 10333 ft | 380 kts | 85° |
| 2026-05-07 06:43 | 37.28958 | 126.94379 | 10459 ft | 399 kts | 84° |
| 2026-05-07 06:43 | 37.29304 | 126.97902 | 10824 ft | 411 kts | 84° |
| 2026-05-07 06:43 | 37.29654 | 127.01521 | 11279 ft | 421 kts | 84° |
| 2026-05-07 06:44 | 37.30003 | 127.05236 | 11938 ft | 426 kts | 84° |
| 2026-05-07 06:44 | 37.30335 | 127.08906 | 12659 ft | 430 kts | 84° |
| 2026-05-07 06:44 | 37.30694 | 127.12652 | 13411 ft | 433 kts | 81° |
| 2026-05-07 06:44 | 37.31454 | 127.16334 | 13986 ft | 441 kts | 70° |
| 2026-05-07 06:45 | 37.32514 | 127.19976 | 14605 ft | 446 kts | 69° |
| 2026-05-07 06:45 | 37.33744 | 127.23533 | 15161 ft | 446 kts | 56° |
| 2026-05-07 06:45 | 37.35727 | 127.26497 | 15674 ft | 445 kts | 36° |
| 2026-05-07 06:45 | 37.38242 | 127.28743 | 16294 ft | 444 kts | 29° |
| 2026-05-07 06:46 | 37.40827 | 127.30920 | 16805 ft | 452 kts | 30° |
| 2026-05-07 06:46 | 37.43424 | 127.33192 | 17419 ft | 457 kts | 31° |
| 2026-05-07 06:46 | 37.46009 | 127.35526 | 18022 ft | 459 kts | 35° |
| 2026-05-07 06:46 | 37.48204 | 127.38532 | 18358 ft | 475 kts | 56° |
| 2026-05-07 06:47 | 37.49573 | 127.42336 | 18792 ft | 483 kts | 76° |
| 2026-05-07 06:47 | 37.50207 | 127.46481 | 19239 ft | 484 kts | 81° |
| 2026-05-07 06:47 | 37.50807 | 127.50687 | 19650 ft | 491 kts | 81° |
| 2026-05-07 06:47 | 37.51456 | 127.54934 | 20164 ft | 496 kts | 80° |
| 2026-05-07 06:48 | 37.52139 | 127.59213 | 20663 ft | 500 kts | 79° |
| 2026-05-07 06:48 | 37.52836 | 127.63519 | 21150 ft | 504 kts | 80° |
| 2026-05-07 06:48 | 37.53537 | 127.67886 | 21542 ft | 511 kts | 80° |
| 2026-05-07 06:48 | 37.54239 | 127.72293 | 21975 ft | 515 kts | 81° |
| 2026-05-07 06:49 | 37.54945 | 127.76726 | 22467 ft | 519 kts | 80° |
| 2026-05-07 06:49 | 37.55653 | 127.81203 | 22920 ft | 522 kts | 81° |
| 2026-05-07 06:49 | 37.56360 | 127.85722 | 23369 ft | 527 kts | 81° |
| 2026-05-07 06:49 | 37.57075 | 127.90274 | 23708 ft | 532 kts | 81° |
| 2026-05-07 06:50 | 37.57796 | 127.94857 | 24100 ft | 534 kts | 81° |
| 2026-05-07 06:50 | 37.58508 | 127.99405 | 24450 ft | 537 kts | 81° |
| 2026-05-07 06:50 | 37.59239 | 128.04097 | 24808 ft | 541 kts | 81° |
| 2026-05-07 06:50 | 37.59967 | 128.08780 | 25193 ft | 544 kts | 81° |
| 2026-05-07 06:51 | 37.60685 | 128.13422 | 25578 ft | 547 kts | 81° |
| 2026-05-07 06:51 | 37.61419 | 128.18144 | 26007 ft | 550 kts | 81° |
| 2026-05-07 06:51 | 37.62158 | 128.22898 | 26368 ft | 553 kts | 81° |
| 2026-05-07 06:51 | 37.62897 | 128.27656 | 26756 ft | 555 kts | 81° |
| 2026-05-07 06:52 | 37.63639 | 128.32459 | 27026 ft | 559 kts | 81° |
| 2026-05-07 06:52 | 37.64381 | 128.37289 | 27386 ft | 562 kts | 81° |
| 2026-05-07 06:52 | 37.65126 | 128.42151 | 27762 ft | 564 kts | 81° |
| 2026-05-07 06:52 | 37.65868 | 128.47018 | 28101 ft | 566 kts | 81° |
| 2026-05-07 06:53 | 37.66614 | 128.51915 | 28433 ft | 569 kts | 81° |
| 2026-05-07 06:53 | 37.67360 | 128.56824 | 28723 ft | 572 kts | 81° |
| 2026-05-07 06:53 | 37.68108 | 128.61779 | 28989 ft | 575 kts | 81° |
| 2026-05-07 06:53 | 37.68826 | 128.66755 | 29297 ft | 573 kts | 84° |
| 2026-05-07 06:54 | 37.69048 | 128.71749 | 29688 ft | 566 kts | 98° |
| 2026-05-07 06:54 | 37.68485 | 128.76555 | 30096 ft | 556 kts | 109° |
| 2026-05-07 06:54 | 37.67303 | 128.81212 | 30478 ft | 546 kts | 120° |
| 2026-05-07 06:54 | 37.65561 | 128.85385 | 30765 ft | 531 kts | 130° |
| 2026-05-07 06:55 | 37.63583 | 128.89271 | 30968 ft | 534 kts | 130° |
| 2026-05-07 06:55 | 37.61587 | 128.93243 | 31238 ft | 534 kts | 130° |
| 2026-05-07 06:55 | 37.59627 | 128.97222 | 31558 ft | 534 kts | 129° |
| 2026-05-07 06:55 | 37.57691 | 129.01217 | 31870 ft | 532 kts | 129° |
| 2026-05-07 06:56 | 37.53846 | 129.09215 | 31848 ft | 534 kts | 129° |
| 2026-05-07 06:56 | 37.49988 | 129.17234 | 32041 ft | 537 kts | 129° |
| 2026-05-07 06:57 | 37.48703 | 129.19897 | 32248 ft | 536 kts | 129° |
| 2026-05-07 06:57 | 37.46760 | 129.23918 | 32588 ft | 535 kts | 129° |
| 2026-05-07 06:57 | 37.44826 | 129.27911 | 32786 ft | 536 kts | 129° |
| 2026-05-07 06:57 | 37.42872 | 129.31934 | 32816 ft | 539 kts | 129° |
| 2026-05-07 06:58 | 37.38948 | 129.40021 | 32826 ft | 543 kts | 129° |
| 2026-05-07 06:58 | 37.35019 | 129.48124 | 32823 ft | 542 kts | 129° |
| 2026-05-07 06:59 | 37.31089 | 129.56208 | 32823 ft | 542 kts | 129° |
| 2026-05-07 06:59 | 37.27159 | 129.64262 | 32818 ft | 540 kts | 129° |
| 2026-05-07 07:00 | 37.23230 | 129.72296 | 32814 ft | 539 kts | 129° |
| 2026-05-07 07:00 | 37.19312 | 129.80294 | 32822 ft | 538 kts | 129° |
| 2026-05-07 07:01 | 37.15418 | 129.88213 | 32822 ft | 536 kts | 128° |
| 2026-05-07 07:01 | 37.11468 | 129.96199 | 32824 ft | 535 kts | 129° |
| 2026-05-07 07:02 | 37.07566 | 130.04063 | 32801 ft | 535 kts | 128° |
| 2026-05-07 07:02 | 37.03640 | 130.11964 | 32821 ft | 534 kts | 128° |
| 2026-05-07 07:03 | 36.99717 | 130.19850 | 32827 ft | 533 kts | 128° |
| 2026-05-07 07:03 | 36.95788 | 130.27722 | 32813 ft | 533 kts | 128° |
| 2026-05-07 07:04 | 36.83559 | 130.52113 | 32837 ft | 533 kts | 128° |
| 2026-05-07 07:04 | 36.67743 | 130.83389 | 32855 ft | 533 kts | 128° |
| 2026-05-07 07:05 | 36.51846 | 131.14538 | 32850 ft | 531 kts | 128° |
| 2026-05-07 07:05 | 36.43824 | 131.30156 | 32876 ft | 530 kts | 128° |
| 2026-05-07 07:06 | 36.40086 | 131.37492 | 32869 ft | 531 kts | 124° |
| 2026-05-07 07:07 | 36.38608 | 131.41370 | 32878 ft | 536 kts | 114° |
| 2026-05-07 07:07 | 36.36891 | 131.50423 | 32891 ft | 544 kts | 97° |
| 2026-05-07 07:08 | 36.36641 | 131.59824 | 32884 ft | 545 kts | 94° |
| 2026-05-07 07:08 | 36.36458 | 131.69228 | 32891 ft | 545 kts | 94° |
| 2026-05-07 07:09 | 36.36201 | 131.78635 | 32882 ft | 545 kts | 95° |
| 2026-05-07 07:09 | 36.35893 | 131.88041 | 32898 ft | 545 kts | 95° |
| 2026-05-07 07:10 | 36.35571 | 131.97443 | 32893 ft | 545 kts | 95° |
| 2026-05-07 07:10 | 36.35246 | 132.06830 | 32889 ft | 544 kts | 95° |
| 2026-05-07 07:11 | 36.34920 | 132.16194 | 32892 ft | 542 kts | 95° |
| 2026-05-07 07:11 | 36.34589 | 132.25468 | 32901 ft | 541 kts | 95° |
| 2026-05-07 07:12 | 36.34247 | 132.34845 | 32896 ft | 540 kts | 95° |
| 2026-05-07 07:12 | 36.33902 | 132.44077 | 32897 ft | 539 kts | 95° |
| 2026-05-07 07:13 | 36.33547 | 132.53421 | 32903 ft | 539 kts | 95° |
| 2026-05-07 07:13 | 36.33189 | 132.62635 | 32886 ft | 538 kts | 95° |
| 2026-05-07 07:14 | 36.32821 | 132.71902 | 32914 ft | 538 kts | 95° |
| 2026-05-07 07:14 | 36.32446 | 132.81180 | 32911 ft | 539 kts | 96° |
| 2026-05-07 07:15 | 36.32063 | 132.90481 | 32910 ft | 540 kts | 96° |
| 2026-05-07 07:15 | 36.31674 | 132.99774 | 32909 ft | 540 kts | 96° |
| 2026-05-07 07:16 | 36.31276 | 133.09081 | 32911 ft | 541 kts | 96° |
| 2026-05-07 07:16 | 36.30871 | 133.18400 | 32904 ft | 541 kts | 96° |
| 2026-05-07 07:17 | 36.30459 | 133.27725 | 32913 ft | 541 kts | 96° |
| 2026-05-07 07:17 | 36.30037 | 133.37027 | 32896 ft | 541 kts | 96° |
| 2026-05-07 07:18 | 36.29612 | 133.46332 | 32910 ft | 540 kts | 96° |
| 2026-05-07 07:18 | 36.29179 | 133.55635 | 32908 ft | 540 kts | 96° |
| 2026-05-07 07:19 | 36.28741 | 133.64874 | 32893 ft | 540 kts | 96° |
| 2026-05-07 07:19 | 36.28295 | 133.74164 | 32907 ft | 540 kts | 96° |
| 2026-05-07 07:20 | 36.27830 | 133.83463 | 32917 ft | 540 kts | 96° |
| 2026-05-07 07:20 | 36.27346 | 133.92738 | 32914 ft | 540 kts | 96° |
| 2026-05-07 07:21 | 36.26858 | 134.02032 | 32908 ft | 540 kts | 96° |
| 2026-05-07 07:21 | 36.26368 | 134.11313 | 32920 ft | 540 kts | 97° |
| 2026-05-07 07:22 | 36.25884 | 134.20614 | 32925 ft | 540 kts | 96° |
| 2026-05-07 07:22 | 36.25399 | 134.29888 | 32922 ft | 540 kts | 97° |
| 2026-05-07 07:23 | 36.24907 | 134.39122 | 32917 ft | 539 kts | 96° |
| 2026-05-07 07:23 | 36.24944 | 134.48417 | 32922 ft | 543 kts | 83° |
| 2026-05-07 07:24 | 36.26952 | 134.57431 | 32922 ft | 545 kts | 66° |
| 2026-05-07 07:24 | 36.30339 | 134.65839 | 32925 ft | 546 kts | 63° |
| 2026-05-07 07:25 | 36.35494 | 134.78429 | 32927 ft | 547 kts | 63° |
| 2026-05-07 07:26 | 36.38867 | 134.86900 | 32927 ft | 547 kts | 64° |
| 2026-05-07 07:26 | 36.42210 | 134.95386 | 32932 ft | 547 kts | 64° |
| 2026-05-07 07:27 | 36.45550 | 135.03883 | 32924 ft | 548 kts | 64° |
| 2026-05-07 07:27 | 36.48890 | 135.12385 | 32926 ft | 548 kts | 64° |
| 2026-05-07 07:28 | 36.52230 | 135.20907 | 32931 ft | 548 kts | 64° |
| 2026-05-07 07:28 | 36.55562 | 135.29431 | 32927 ft | 548 kts | 64° |
| 2026-05-07 07:29 | 36.58890 | 135.37969 | 32928 ft | 548 kts | 64° |
| 2026-05-07 07:29 | 36.62209 | 135.46506 | 32928 ft | 548 kts | 64° |
| 2026-05-07 07:30 | 36.65526 | 135.55064 | 32927 ft | 548 kts | 64° |
| 2026-05-07 07:30 | 36.68834 | 135.63620 | 32928 ft | 548 kts | 64° |
| 2026-05-07 07:31 | 36.72136 | 135.72181 | 32932 ft | 548 kts | 64° |
| 2026-05-07 07:31 | 36.75427 | 135.80740 | 32913 ft | 548 kts | 64° |
| 2026-05-07 07:32 | 36.78718 | 135.89322 | 32925 ft | 548 kts | 64° |
| 2026-05-07 07:32 | 36.81978 | 135.97845 | 32931 ft | 548 kts | 64° |
| 2026-05-07 07:33 | 36.85277 | 136.06495 | 32929 ft | 548 kts | 65° |
| 2026-05-07 07:33 | 36.88529 | 136.15046 | 32927 ft | 549 kts | 65° |
| 2026-05-07 07:34 | 36.91797 | 136.23662 | 32926 ft | 549 kts | 65° |
| 2026-05-07 07:34 | 36.95065 | 136.32299 | 32929 ft | 550 kts | 65° |
| 2026-05-07 07:35 | 36.98328 | 136.40951 | 32927 ft | 550 kts | 65° |
| 2026-05-07 07:35 | 37.01597 | 136.49643 | 32930 ft | 551 kts | 65° |
| 2026-05-07 07:36 | 37.04854 | 136.58325 | 32931 ft | 552 kts | 65° |
| 2026-05-07 07:36 | 37.08112 | 136.67037 | 32929 ft | 553 kts | 65° |
| 2026-05-07 07:37 | 37.11347 | 136.75709 | 32938 ft | 554 kts | 66° |
| 2026-05-07 07:37 | 37.14605 | 136.84472 | 32936 ft | 555 kts | 66° |
| 2026-05-07 07:38 | 37.17858 | 136.93242 | 32925 ft | 555 kts | 66° |
| 2026-05-07 07:38 | 37.21106 | 137.02046 | 32933 ft | 556 kts | 66° |
| 2026-05-07 07:39 | 37.24353 | 137.10866 | 32922 ft | 556 kts | 66° |
| 2026-05-07 07:39 | 37.27590 | 137.19675 | 32940 ft | 556 kts | 66° |
| 2026-05-07 07:40 | 37.30803 | 137.28446 | 32929 ft | 556 kts | 66° |
| 2026-05-07 07:40 | 37.34033 | 137.37289 | 32926 ft | 556 kts | 66° |
| 2026-05-07 07:41 | 37.37253 | 137.46132 | 32926 ft | 557 kts | 66° |
| 2026-05-07 07:41 | 37.40475 | 137.55006 | 32937 ft | 557 kts | 66° |
| 2026-05-07 07:42 | 37.43148 | 137.62387 | 32935 ft | 558 kts | 66° |
| 2026-05-07 07:42 | 37.46383 | 137.71344 | 32935 ft | 559 kts | 67° |
| 2026-05-07 07:43 | 37.49593 | 137.80261 | 32938 ft | 559 kts | 67° |
| 2026-05-07 07:43 | 37.52779 | 137.89133 | 32944 ft | 560 kts | 67° |
| 2026-05-07 07:44 | 37.55986 | 137.98091 | 32928 ft | 561 kts | 67° |
| 2026-05-07 07:44 | 37.59184 | 138.07054 | 32939 ft | 561 kts | 67° |
| 2026-05-07 07:45 | 37.62378 | 138.16029 | 32933 ft | 561 kts | 67° |
| 2026-05-07 07:45 | 37.65566 | 138.25012 | 32936 ft | 560 kts | 67° |
| 2026-05-07 07:46 | 37.68740 | 138.33989 | 32934 ft | 559 kts | 67° |
| 2026-05-07 07:46 | 37.71904 | 138.42957 | 32933 ft | 558 kts | 67° |
| 2026-05-07 07:47 | 37.75060 | 138.51920 | 32931 ft | 558 kts | 67° |
| 2026-05-07 07:47 | 37.78210 | 138.60888 | 32928 ft | 557 kts | 67° |
| 2026-05-07 07:48 | 37.81348 | 138.69853 | 32937 ft | 557 kts | 67° |
| 2026-05-07 07:48 | 37.84473 | 138.78808 | 32923 ft | 557 kts | 67° |
| 2026-05-07 07:49 | 37.87597 | 138.87786 | 32918 ft | 557 kts | 67° |
| 2026-05-07 07:49 | 37.90715 | 138.96777 | 32913 ft | 558 kts | 67° |
| 2026-05-07 07:50 | 37.93830 | 139.05805 | 32918 ft | 558 kts | 69° |
| 2026-05-07 07:50 | 37.96177 | 139.15149 | 32915 ft | 556 kts | 80° |
| 2026-05-07 07:51 | 37.97315 | 139.24729 | 32965 ft | 553 kts | 86° |
| 2026-05-07 07:51 | 37.98266 | 139.34470 | 32938 ft | 554 kts | 86° |
| 2026-05-07 07:52 | 37.99262 | 139.44109 | 32948 ft | 555 kts | 85° |
| 2026-05-07 07:52 | 38.00289 | 139.53819 | 32921 ft | 555 kts | 85° |
| 2026-05-07 07:53 | 38.01298 | 139.63492 | 32937 ft | 553 kts | 85° |
| 2026-05-07 07:53 | 38.02300 | 139.73152 | 32929 ft | 551 kts | 85° |
| 2026-05-07 07:54 | 38.03290 | 139.82819 | 32929 ft | 551 kts | 85° |
| 2026-05-07 07:54 | 38.04262 | 139.92464 | 32923 ft | 552 kts | 85° |
| 2026-05-07 07:55 | 38.05231 | 140.02060 | 32916 ft | 552 kts | 85° |
| 2026-05-07 07:55 | 38.06199 | 140.11740 | 32918 ft | 553 kts | 85° |
| 2026-05-07 07:56 | 38.07156 | 140.21420 | 32914 ft | 552 kts | 85° |
| 2026-05-07 07:56 | 38.08106 | 140.31097 | 32898 ft | 552 kts | 85° |
| 2026-05-07 07:57 | 38.09043 | 140.40746 | 32909 ft | 551 kts | 85° |
| 2026-05-07 07:57 | 38.09975 | 140.50410 | 32878 ft | 550 kts | 85° |
| 2026-05-07 07:58 | 38.10892 | 140.60023 | 32910 ft | 548 kts | 85° |
| 2026-05-07 07:58 | 38.11804 | 140.69628 | 32899 ft | 549 kts | 85° |
| 2026-05-07 07:59 | 38.12710 | 140.79283 | 32890 ft | 551 kts | 85° |
| 2026-05-07 07:59 | 38.13528 | 140.88973 | 32882 ft | 551 kts | 90° |
| 2026-05-07 08:00 | 38.13296 | 140.98644 | 32880 ft | 546 kts | 101° |
| 2026-05-07 08:00 | 38.12161 | 141.08099 | 32894 ft | 545 kts | 102° |
| 2026-05-07 08:01 | 38.11018 | 141.17624 | 32901 ft | 546 kts | 102° |
| 2026-05-07 08:01 | 38.09916 | 141.27171 | 32908 ft | 546 kts | 102° |
| 2026-05-07 08:02 | 38.08825 | 141.36717 | 32918 ft | 546 kts | 102° |
| 2026-05-07 08:02 | 38.07725 | 141.46255 | 32918 ft | 546 kts | 102° |
| 2026-05-07 08:03 | 38.06614 | 141.55782 | 32899 ft | 545 kts | 102° |
| 2026-05-07 08:03 | 38.05497 | 141.65284 | 32917 ft | 544 kts | 102° |
| 2026-05-07 08:04 | 38.04377 | 141.74753 | 32922 ft | 542 kts | 102° |
| 2026-05-07 08:04 | 38.03249 | 141.84214 | 32925 ft | 542 kts | 102° |
| 2026-05-07 08:05 | 38.02115 | 141.93666 | 32908 ft | 542 kts | 102° |
| 2026-05-07 08:05 | 38.00976 | 142.03108 | 32927 ft | 541 kts | 102° |
| 2026-05-07 08:06 | 37.99828 | 142.12524 | 32934 ft | 541 kts | 102° |
| 2026-05-07 08:06 | 37.98894 | 142.20110 | 32938 ft | 541 kts | 102° |
| 2026-05-07 08:07 | 37.98181 | 142.25871 | 32934 ft | 541 kts | 102° |
| 2026-05-07 08:08 | 37.97010 | 142.35288 | 32934 ft | 541 kts | 102° |
| 2026-05-07 08:08 | 37.95834 | 142.44697 | 32937 ft | 541 kts | 102° |
| 2026-05-07 08:09 | 37.94650 | 142.54106 | 32939 ft | 541 kts | 102° |
| 2026-05-07 08:09 | 37.93465 | 142.63456 | 32945 ft | 541 kts | 102° |
| 2026-05-07 08:10 | 37.92266 | 142.72859 | 32945 ft | 540 kts | 102° |
| 2026-05-07 08:10 | 37.91059 | 142.82257 | 32939 ft | 540 kts | 102° |
| 2026-05-07 08:11 | 37.89848 | 142.91635 | 32947 ft | 540 kts | 102° |
| 2026-05-07 08:11 | 37.88628 | 143.01018 | 32947 ft | 540 kts | 102° |
| 2026-05-07 08:12 | 37.87402 | 143.10386 | 32943 ft | 539 kts | 102° |
| 2026-05-07 08:12 | 37.86167 | 143.19769 | 32951 ft | 539 kts | 102° |
| 2026-05-07 08:13 | 37.84927 | 143.29129 | 32953 ft | 539 kts | 102° |
| 2026-05-07 08:13 | 37.83681 | 143.38488 | 32957 ft | 539 kts | 102° |
| 2026-05-07 08:14 | 37.82488 | 143.47852 | 32944 ft | 541 kts | 98° |
| 2026-05-07 08:14 | 37.82758 | 143.57314 | 32955 ft | 545 kts | 82° |
| 2026-05-07 08:15 | 37.84791 | 143.66535 | 32967 ft | 546 kts | 71° |
| 2026-05-07 08:15 | 37.87346 | 143.75594 | 32963 ft | 546 kts | 70° |
| 2026-05-07 08:16 | 37.89858 | 143.84679 | 32962 ft | 547 kts | 71° |
| 2026-05-07 08:16 | 37.92311 | 143.93804 | 32962 ft | 547 kts | 71° |
| 2026-05-07 08:17 | 37.94739 | 144.02949 | 32957 ft | 548 kts | 72° |
| 2026-05-07 08:17 | 37.97163 | 144.12103 | 32961 ft | 548 kts | 72° |
| 2026-05-07 08:18 | 37.99571 | 144.21211 | 32961 ft | 548 kts | 72° |
| 2026-05-07 08:18 | 38.01988 | 144.30377 | 32961 ft | 548 kts | 72° |
| 2026-05-07 08:19 | 38.04397 | 144.39546 | 32966 ft | 548 kts | 72° |
| 2026-05-07 08:19 | 38.06802 | 144.48736 | 32963 ft | 548 kts | 72° |
| 2026-05-07 08:20 | 38.09195 | 144.57911 | 32967 ft | 548 kts | 71° |
| 2026-05-07 08:20 | 38.11583 | 144.67103 | 32974 ft | 548 kts | 72° |
| 2026-05-07 08:21 | 38.13962 | 144.76295 | 32985 ft | 548 kts | 71° |
| 2026-05-07 08:21 | 38.16342 | 144.85523 | 32975 ft | 549 kts | 71° |
| 2026-05-07 08:22 | 38.18715 | 144.94759 | 32977 ft | 550 kts | 72° |
| 2026-05-07 08:22 | 38.21082 | 145.04003 | 32981 ft | 550 kts | 71° |
| 2026-05-07 08:23 | 38.23444 | 145.13266 | 32982 ft | 551 kts | 71° |
| 2026-05-07 08:23 | 38.25806 | 145.22563 | 32975 ft | 551 kts | 71° |
| 2026-05-07 08:24 | 38.28139 | 145.31786 | 32976 ft | 551 kts | 72° |
| 2026-05-07 08:24 | 38.30479 | 145.41057 | 32985 ft | 550 kts | 72° |
| 2026-05-07 08:25 | 38.33378 | 145.50033 | 32981 ft | 547 kts | 57° |
| 2026-05-07 08:25 | 38.37914 | 145.57730 | 33005 ft | 541 kts | 41° |
| 2026-05-07 08:26 | 38.45329 | 145.66347 | 32990 ft | 539 kts | 38° |
| 2026-05-07 08:26 | 38.50894 | 145.72777 | 32995 ft | 540 kts | 38° |
| 2026-05-07 08:27 | 38.56388 | 145.79238 | 32999 ft | 541 kts | 39° |
| 2026-05-07 08:27 | 38.61908 | 145.85792 | 32996 ft | 541 kts | 39° |
| 2026-05-07 08:28 | 38.67413 | 145.92350 | 32995 ft | 541 kts | 39° |
| 2026-05-07 08:28 | 38.72926 | 145.98926 | 32997 ft | 542 kts | 38° |
| 2026-05-07 08:29 | 38.78452 | 146.05521 | 33006 ft | 542 kts | 38° |
| 2026-05-07 08:29 | 38.83972 | 146.12122 | 32998 ft | 543 kts | 38° |
| 2026-05-07 08:30 | 38.89489 | 146.18739 | 32999 ft | 543 kts | 38° |
| 2026-05-07 08:30 | 38.95008 | 146.25375 | 33000 ft | 543 kts | 38° |
| 2026-05-07 08:31 | 39.00520 | 146.32015 | 33012 ft | 543 kts | 38° |
| 2026-05-07 08:31 | 39.06032 | 146.38671 | 33002 ft | 544 kts | 38° |
| 2026-05-07 08:32 | 39.11541 | 146.45336 | 33001 ft | 544 kts | 38° |
| 2026-05-07 08:32 | 39.17031 | 146.51994 | 32998 ft | 545 kts | 38° |
| 2026-05-07 08:33 | 39.22542 | 146.58693 | 32999 ft | 545 kts | 38° |
| 2026-05-07 08:33 | 39.28053 | 146.65408 | 33007 ft | 545 kts | 38° |
| 2026-05-07 08:34 | 39.33567 | 146.72142 | 33026 ft | 545 kts | 38° |
| 2026-05-07 08:34 | 39.39074 | 146.78882 | 33015 ft | 546 kts | 38° |
| 2026-05-07 08:35 | 39.44597 | 146.85655 | 33013 ft | 547 kts | 38° |
| 2026-05-07 08:35 | 39.50116 | 146.92442 | 33008 ft | 547 kts | 38° |
| 2026-05-07 08:36 | 39.55635 | 146.99243 | 33008 ft | 548 kts | 38° |
| 2026-05-07 08:36 | 39.61160 | 147.06068 | 33008 ft | 548 kts | 38° |
| 2026-05-07 08:37 | 39.66639 | 147.12853 | 33025 ft | 549 kts | 38° |
| 2026-05-07 08:37 | 39.72167 | 147.19711 | 33008 ft | 549 kts | 38° |
| 2026-05-07 08:38 | 39.77692 | 147.26583 | 33005 ft | 550 kts | 38° |
| 2026-05-07 08:38 | 39.83217 | 147.33472 | 33009 ft | 550 kts | 38° |
| 2026-05-07 08:39 | 39.88740 | 147.40375 | 33017 ft | 550 kts | 38° |
| 2026-05-07 08:39 | 39.94266 | 147.47298 | 33002 ft | 551 kts | 38° |
| 2026-05-07 08:40 | 39.99787 | 147.54229 | 33011 ft | 551 kts | 38° |
| 2026-05-07 08:40 | 40.05307 | 147.61176 | 33009 ft | 551 kts | 38° |
| 2026-05-07 08:41 | 40.10826 | 147.68140 | 33010 ft | 551 kts | 38° |
| 2026-05-07 08:41 | 40.16337 | 147.75109 | 33006 ft | 551 kts | 38° |
| 2026-05-07 08:42 | 40.21829 | 147.82071 | 33004 ft | 550 kts | 38° |
| 2026-05-07 08:42 | 40.27323 | 147.89052 | 33033 ft | 550 kts | 38° |
| 2026-05-07 08:43 | 40.32812 | 147.96042 | 33008 ft | 550 kts | 38° |
| 2026-05-07 08:43 | 40.38289 | 148.03035 | 33007 ft | 550 kts | 38° |
| 2026-05-07 08:44 | 40.43735 | 148.10005 | 33014 ft | 550 kts | 38° |
| 2026-05-07 08:44 | 40.49240 | 148.17067 | 32999 ft | 549 kts | 38° |
| 2026-05-07 08:45 | 40.54668 | 148.24047 | 33009 ft | 549 kts | 38° |
| 2026-05-07 08:45 | 40.60114 | 148.31068 | 33015 ft | 549 kts | 38° |
| 2026-05-07 08:46 | 40.65564 | 148.38110 | 33010 ft | 548 kts | 38° |
| 2026-05-07 08:46 | 40.71003 | 148.45154 | 33004 ft | 548 kts | 38° |
| 2026-05-07 08:47 | 40.76438 | 148.52211 | 33013 ft | 547 kts | 38° |
| 2026-05-07 08:47 | 40.81851 | 148.59257 | 33007 ft | 547 kts | 39° |
| 2026-05-07 08:48 | 40.87270 | 148.66328 | 33003 ft | 547 kts | 39° |
| 2026-05-07 08:48 | 40.92647 | 148.73361 | 33015 ft | 547 kts | 38° |
| 2026-05-07 08:49 | 40.98051 | 148.80446 | 33003 ft | 547 kts | 39° |
| 2026-05-07 08:49 | 41.03450 | 148.87543 | 33003 ft | 547 kts | 39° |
| 2026-05-07 08:50 | 41.08839 | 148.94643 | 33003 ft | 547 kts | 39° |
| 2026-05-07 08:50 | 41.14251 | 149.01792 | 33302 ft | 550 kts | 39° |
| 2026-05-07 08:51 | 41.16956 | 149.05378 | 33645 ft | 548 kts | 39° |
| 2026-05-07 08:51 | 41.19640 | 149.08943 | 33947 ft | 546 kts | 39° |
| 2026-05-07 08:51 | 41.25028 | 149.16106 | 33993 ft | 547 kts | 39° |
| 2026-05-07 08:52 | 41.30390 | 149.23254 | 33996 ft | 544 kts | 39° |
| 2026-05-07 08:52 | 41.35725 | 149.30381 | 34014 ft | 543 kts | 38° |
| 2026-05-07 08:53 | 41.41056 | 149.37520 | 34001 ft | 543 kts | 38° |
| 2026-05-07 08:53 | 41.46348 | 149.44622 | 33995 ft | 543 kts | 39° |
| 2026-05-07 08:54 | 41.51670 | 149.51783 | 34002 ft | 543 kts | 39° |
| 2026-05-07 08:54 | 41.56990 | 149.58960 | 33999 ft | 545 kts | 38° |
| 2026-05-07 08:55 | 41.62322 | 149.66171 | 33998 ft | 546 kts | 39° |
| 2026-05-07 08:55 | 41.67664 | 149.73415 | 34008 ft | 547 kts | 38° |
| 2026-05-07 08:56 | 41.73002 | 149.80671 | 33992 ft | 547 kts | 38° |
| 2026-05-07 08:56 | 41.78337 | 149.87942 | 33988 ft | 547 kts | 39° |
| 2026-05-07 08:57 | 41.83665 | 149.95222 | 34001 ft | 547 kts | 38° |
| 2026-05-07 08:57 | 41.88990 | 150.02516 | 33992 ft | 547 kts | 38° |
| 2026-05-07 08:58 | 41.94306 | 150.09814 | 33981 ft | 547 kts | 39° |
| 2026-05-07 08:58 | 41.99581 | 150.17077 | 33994 ft | 547 kts | 38° |
| 2026-05-07 08:59 | 42.04894 | 150.24409 | 33979 ft | 547 kts | 38° |
| 2026-05-07 08:59 | 42.10196 | 150.31745 | 33982 ft | 547 kts | 38° |
| 2026-05-07 09:00 | 42.15491 | 150.39091 | 33993 ft | 546 kts | 38° |
| 2026-05-07 09:00 | 42.20789 | 150.46458 | 33984 ft | 547 kts | 38° |
| 2026-05-07 09:01 | 42.26090 | 150.53847 | 33984 ft | 548 kts | 38° |
| 2026-05-07 09:01 | 42.31396 | 150.61265 | 33985 ft | 549 kts | 38° |
| 2026-05-07 09:02 | 42.36696 | 150.68693 | 33972 ft | 549 kts | 38° |
| 2026-05-07 09:02 | 42.41997 | 150.76143 | 33975 ft | 549 kts | 38° |
| 2026-05-07 09:03 | 42.47289 | 150.83599 | 33987 ft | 549 kts | 38° |
| 2026-05-07 09:03 | 42.52574 | 150.91064 | 33981 ft | 549 kts | 38° |
| 2026-05-07 09:04 | 42.57853 | 150.98540 | 33969 ft | 549 kts | 38° |
| 2026-05-07 09:04 | 42.63133 | 151.06037 | 33969 ft | 548 kts | 38° |
| 2026-05-07 09:05 | 42.68401 | 151.13536 | 33970 ft | 548 kts | 38° |
| 2026-05-07 09:05 | 42.73662 | 151.21046 | 33961 ft | 548 kts | 38° |
| 2026-05-07 09:06 | 42.78922 | 151.28573 | 33975 ft | 548 kts | 38° |
| 2026-05-07 09:06 | 42.82456 | 151.33642 | 33970 ft | 548 kts | 38° |
| 2026-05-07 09:07 | 42.87036 | 151.40225 | 33967 ft | 549 kts | 39° |
| 2026-05-07 09:08 | 42.92250 | 151.47736 | 33962 ft | 549 kts | 39° |
| 2026-05-07 09:08 | 42.97495 | 151.55313 | 33962 ft | 549 kts | 39° |
| 2026-05-07 09:09 | 43.02733 | 151.62901 | 33955 ft | 549 kts | 39° |
| 2026-05-07 09:09 | 43.07965 | 151.70500 | 33959 ft | 549 kts | 39° |
| 2026-05-07 09:10 | 43.13199 | 151.78119 | 33962 ft | 549 kts | 39° |
| 2026-05-07 09:10 | 43.18434 | 151.85762 | 33969 ft | 551 kts | 39° |
| 2026-05-07 09:11 | 43.22788 | 151.92134 | 33950 ft | 551 kts | 39° |
| 2026-05-07 09:11 | 43.28922 | 152.01136 | 33962 ft | 553 kts | 39° |
| 2026-05-07 09:12 | 43.33289 | 152.07564 | 33959 ft | 554 kts | 39° |
| 2026-05-07 09:12 | 43.38540 | 152.15311 | 33951 ft | 555 kts | 39° |
| 2026-05-07 09:13 | 43.43798 | 152.23089 | 33954 ft | 555 kts | 40° |
| 2026-05-07 09:13 | 43.49058 | 152.30893 | 33952 ft | 556 kts | 40° |
| 2026-05-07 09:14 | 43.54307 | 152.38702 | 33950 ft | 556 kts | 40° |
| 2026-05-07 09:14 | 43.59564 | 152.46543 | 33960 ft | 556 kts | 40° |
| 2026-05-07 09:15 | 43.64797 | 152.54373 | 33959 ft | 555 kts | 40° |
| 2026-05-07 09:15 | 43.70020 | 152.62207 | 33943 ft | 553 kts | 40° |
| 2026-05-07 09:16 | 43.75229 | 152.70043 | 33960 ft | 551 kts | 40° |
| 2026-05-07 09:16 | 43.80388 | 152.77828 | 33939 ft | 547 kts | 40° |
| 2026-05-07 09:17 | 43.85522 | 152.85591 | 33945 ft | 546 kts | 40° |
| 2026-05-07 09:17 | 43.90610 | 152.93304 | 33957 ft | 546 kts | 40° |
| 2026-05-07 09:18 | 43.95759 | 153.01130 | 33945 ft | 546 kts | 40° |
| 2026-05-07 09:18 | 44.00851 | 153.08893 | 33946 ft | 547 kts | 40° |
| 2026-05-07 09:19 | 44.05968 | 153.16717 | 33963 ft | 547 kts | 40° |
| 2026-05-07 09:19 | 44.11093 | 153.24576 | 33946 ft | 548 kts | 40° |
| 2026-05-07 09:20 | 44.16214 | 153.32450 | 33945 ft | 549 kts | 40° |
| 2026-05-07 09:20 | 44.21341 | 153.40355 | 33935 ft | 550 kts | 40° |
| 2026-05-07 09:21 | 44.26467 | 153.48282 | 33930 ft | 550 kts | 40° |
| 2026-05-07 09:21 | 44.31586 | 153.56222 | 33925 ft | 550 kts | 40° |
| 2026-05-07 09:22 | 44.36659 | 153.64110 | 33926 ft | 550 kts | 40° |
| 2026-05-07 09:22 | 44.41761 | 153.72067 | 33937 ft | 549 kts | 40° |
| 2026-05-07 09:23 | 44.46860 | 153.80039 | 33918 ft | 549 kts | 40° |
| 2026-05-07 09:23 | 44.51950 | 153.88023 | 33952 ft | 549 kts | 41° |
| 2026-05-07 09:24 | 44.57030 | 153.96011 | 33937 ft | 548 kts | 41° |
| 2026-05-07 09:24 | 44.62096 | 154.04004 | 33915 ft | 548 kts | 41° |
| 2026-05-07 09:25 | 44.67149 | 154.11996 | 33918 ft | 547 kts | 41° |
| 2026-05-07 09:25 | 44.72189 | 154.19991 | 33933 ft | 546 kts | 41° |
| 2026-05-07 09:26 | 44.77218 | 154.27990 | 33915 ft | 546 kts | 41° |
| 2026-05-07 09:26 | 44.82238 | 154.35999 | 33914 ft | 545 kts | 41° |
| 2026-05-07 09:27 | 44.87249 | 154.44027 | 33917 ft | 546 kts | 41° |
| 2026-05-07 09:28 | 44.94652 | 154.56192 | 33914 ft | 548 kts | 41° |
| 2026-05-07 09:28 | 44.99595 | 154.64387 | 33914 ft | 548 kts | 41° |
| 2026-05-07 09:29 | 45.04541 | 154.72590 | 33930 ft | 548 kts | 41° |
| 2026-05-07 09:29 | 45.09486 | 154.80799 | 33916 ft | 548 kts | 41° |
| 2026-05-07 09:30 | 45.14423 | 154.89017 | 33902 ft | 547 kts | 41° |
| 2026-05-07 09:30 | 45.19354 | 154.97250 | 33906 ft | 547 kts | 41° |
| 2026-05-07 09:31 | 45.24272 | 155.05486 | 33912 ft | 548 kts | 41° |
| 2026-05-07 09:31 | 45.29190 | 155.13746 | 33902 ft | 548 kts | 41° |
| 2026-05-07 09:32 | 45.34100 | 155.22017 | 33899 ft | 548 kts | 41° |
| 2026-05-07 09:32 | 45.39017 | 155.30326 | 33915 ft | 548 kts | 41° |
| 2026-05-07 09:33 | 45.43923 | 155.38641 | 33892 ft | 548 kts | 41° |
| 2026-05-07 09:33 | 45.48819 | 155.46964 | 33903 ft | 548 kts | 42° |
| 2026-05-07 09:34 | 45.53706 | 155.55296 | 33924 ft | 547 kts | 42° |
| 2026-05-07 09:34 | 45.58595 | 155.63656 | 33902 ft | 547 kts | 42° |
| 2026-05-07 09:35 | 45.63435 | 155.71955 | 33896 ft | 547 kts | 42° |
| 2026-05-07 09:35 | 45.68302 | 155.80326 | 33897 ft | 547 kts | 42° |
| 2026-05-07 09:36 | 45.73163 | 155.88714 | 33898 ft | 547 kts | 42° |
| 2026-05-07 09:36 | 45.78021 | 155.97121 | 33893 ft | 547 kts | 42° |
| 2026-05-07 09:37 | 45.82862 | 156.05524 | 33893 ft | 546 kts | 42° |
| 2026-05-07 09:37 | 45.87692 | 156.13933 | 33895 ft | 546 kts | 42° |
| 2026-05-07 09:38 | 45.92487 | 156.22304 | 33898 ft | 547 kts | 42° |
| 2026-05-07 09:38 | 45.97315 | 156.30758 | 33890 ft | 548 kts | 42° |
| 2026-05-07 09:39 | 46.02147 | 156.39245 | 33919 ft | 549 kts | 42° |
| 2026-05-07 09:39 | 46.06982 | 156.47766 | 33891 ft | 550 kts | 42° |
| 2026-05-07 09:40 | 46.11844 | 156.56362 | 33880 ft | 550 kts | 42° |
| 2026-05-07 09:40 | 46.16635 | 156.64857 | 33888 ft | 549 kts | 42° |
| 2026-05-07 09:41 | 46.21448 | 156.73419 | 33895 ft | 549 kts | 42° |
| 2026-05-07 09:41 | 46.26247 | 156.81981 | 33905 ft | 548 kts | 42° |
| 2026-05-07 09:42 | 46.31042 | 156.90560 | 33890 ft | 548 kts | 42° |
| 2026-05-07 09:42 | 46.35825 | 156.99145 | 33913 ft | 548 kts | 42° |
| 2026-05-07 09:43 | 46.40601 | 157.07743 | 33885 ft | 548 kts | 43° |
| 2026-05-07 09:43 | 46.45367 | 157.16351 | 33885 ft | 547 kts | 43° |
| 2026-05-07 09:44 | 46.50125 | 157.24973 | 33887 ft | 547 kts | 43° |
| 2026-05-07 09:44 | 46.54847 | 157.33554 | 33890 ft | 547 kts | 43° |
| 2026-05-07 09:45 | 46.59583 | 157.42188 | 33925 ft | 546 kts | 43° |
| 2026-05-07 09:45 | 46.64322 | 157.50855 | 33894 ft | 548 kts | 43° |
| 2026-05-07 09:46 | 46.69064 | 157.59552 | 33908 ft | 549 kts | 43° |
| 2026-05-07 09:46 | 46.73805 | 157.68276 | 33891 ft | 549 kts | 43° |
| 2026-05-07 09:47 | 46.78539 | 157.77017 | 33895 ft | 549 kts | 43° |
| 2026-05-07 09:47 | 46.83265 | 157.85771 | 33892 ft | 549 kts | 43° |
| 2026-05-07 09:48 | 46.87979 | 157.94529 | 33895 ft | 548 kts | 44° |
| 2026-05-07 09:48 | 46.92676 | 158.03286 | 33892 ft | 546 kts | 44° |
| 2026-05-07 09:49 | 46.97366 | 158.12054 | 33900 ft | 546 kts | 43° |
| 2026-05-07 09:49 | 47.02048 | 158.20834 | 33924 ft | 547 kts | 44° |
| 2026-05-07 09:50 | 47.06728 | 158.29638 | 33901 ft | 547 kts | 44° |
| 2026-05-07 09:50 | 47.11370 | 158.38402 | 33899 ft | 547 kts | 44° |
| 2026-05-07 09:51 | 47.16039 | 158.47245 | 33905 ft | 547 kts | 44° |
| 2026-05-07 09:51 | 47.20694 | 158.56088 | 33912 ft | 547 kts | 44° |
| 2026-05-07 09:52 | 47.25350 | 158.64963 | 33901 ft | 547 kts | 44° |
| 2026-05-07 09:52 | 47.29990 | 158.73836 | 33907 ft | 547 kts | 44° |
| 2026-05-07 09:53 | 47.34626 | 158.82729 | 33926 ft | 546 kts | 44° |
| 2026-05-07 09:53 | 47.39243 | 158.91614 | 33908 ft | 546 kts | 44° |
| 2026-05-07 09:54 | 47.43860 | 159.00528 | 33903 ft | 545 kts | 44° |
| 2026-05-07 09:54 | 47.48429 | 159.09381 | 33913 ft | 545 kts | 44° |
| 2026-05-07 09:55 | 47.53016 | 159.18293 | 33909 ft | 545 kts | 44° |
| 2026-05-07 09:55 | 47.57606 | 159.27241 | 33910 ft | 545 kts | 44° |
| 2026-05-07 09:56 | 47.62190 | 159.36208 | 33914 ft | 545 kts | 44° |
| 2026-05-07 09:56 | 47.66770 | 159.45196 | 33950 ft | 546 kts | 44° |
| 2026-05-07 09:57 | 47.71353 | 159.54218 | 33919 ft | 548 kts | 44° |
| 2026-05-07 09:57 | 47.75162 | 159.61741 | 33916 ft | 548 kts | 44° |
| 2026-05-07 09:58 | 47.79739 | 159.70809 | 33910 ft | 548 kts | 44° |
| 2026-05-07 09:58 | 47.84308 | 159.79892 | 33923 ft | 548 kts | 44° |
| 2026-05-07 09:59 | 47.88870 | 159.88990 | 33917 ft | 548 kts | 45° |
| 2026-05-07 09:59 | 47.93421 | 159.98097 | 33913 ft | 547 kts | 45° |
| 2026-05-07 10:00 | 47.97963 | 160.07214 | 33911 ft | 547 kts | 45° |
| 2026-05-07 10:00 | 48.02495 | 160.16346 | 33957 ft | 548 kts | 44° |
| 2026-05-07 10:01 | 48.07033 | 160.25513 | 33925 ft | 549 kts | 44° |
| 2026-05-07 10:01 | 48.11537 | 160.34647 | 33921 ft | 549 kts | 44° |
| 2026-05-07 10:02 | 48.16062 | 160.43857 | 33936 ft | 549 kts | 44° |
| 2026-05-07 10:02 | 48.20582 | 160.53087 | 33920 ft | 549 kts | 44° |
| 2026-05-07 10:03 | 48.25100 | 160.62344 | 33912 ft | 549 kts | 44° |
| 2026-05-07 10:03 | 48.29583 | 160.71605 | 33910 ft | 549 kts | 45° |
| 2026-05-07 10:04 | 48.33955 | 160.81045 | 33923 ft | 551 kts | 46° |
| 2026-05-07 10:04 | 48.38286 | 160.90558 | 33921 ft | 552 kts | 46° |
| 2026-05-07 10:05 | 48.42631 | 161.00088 | 33924 ft | 552 kts | 46° |
| 2026-05-07 10:05 | 48.46989 | 161.09630 | 33925 ft | 553 kts | 46° |
| 2026-05-07 10:06 | 48.51355 | 161.19209 | 33923 ft | 554 kts | 46° |
| 2026-05-07 10:06 | 48.55712 | 161.28811 | 33917 ft | 555 kts | 46° |
| 2026-05-07 10:07 | 48.58878 | 161.35810 | 33917 ft | 555 kts | 46° |
| 2026-05-07 10:08 | 48.62466 | 161.43768 | 33918 ft | 555 kts | 46° |
| 2026-05-07 10:08 | 48.66808 | 161.53425 | 33926 ft | 555 kts | 46° |
| 2026-05-07 10:09 | 48.71143 | 161.63103 | 33917 ft | 556 kts | 46° |
| 2026-05-07 10:09 | 48.75479 | 161.72814 | 33924 ft | 557 kts | 47° |
| 2026-05-07 10:10 | 48.79811 | 161.82552 | 33935 ft | 558 kts | 47° |
| 2026-05-07 10:10 | 48.84145 | 161.92335 | 33918 ft | 559 kts | 47° |
| 2026-05-07 10:11 | 48.88475 | 162.02143 | 33907 ft | 559 kts | 47° |
| 2026-05-07 10:11 | 48.92800 | 162.11975 | 33916 ft | 559 kts | 47° |
| 2026-05-07 10:12 | 48.97118 | 162.21824 | 33921 ft | 560 kts | 48° |
| 2026-05-07 10:12 | 49.01432 | 162.31703 | 33916 ft | 560 kts | 48° |
| 2026-05-07 10:13 | 49.05739 | 162.41605 | 33906 ft | 560 kts | 48° |
| 2026-05-07 10:13 | 49.10045 | 162.51536 | 33903 ft | 562 kts | 48° |
| 2026-05-07 10:14 | 49.14323 | 162.61440 | 33901 ft | 562 kts | 49° |
| 2026-05-07 10:14 | 49.18613 | 162.71412 | 33897 ft | 562 kts | 49° |
| 2026-05-07 10:15 | 49.22903 | 162.81422 | 33899 ft | 562 kts | 49° |
| 2026-05-07 10:15 | 49.27184 | 162.91446 | 33918 ft | 563 kts | 49° |
| 2026-05-07 10:16 | 49.31466 | 163.01510 | 33907 ft | 563 kts | 49° |
| 2026-05-07 10:16 | 49.35742 | 163.11598 | 33896 ft | 564 kts | 49° |
| 2026-05-07 10:17 | 49.40003 | 163.21692 | 33891 ft | 563 kts | 49° |
| 2026-05-07 10:17 | 49.44256 | 163.31802 | 33923 ft | 564 kts | 49° |
| 2026-05-07 10:18 | 49.48503 | 163.41936 | 33893 ft | 563 kts | 49° |
| 2026-05-07 10:18 | 49.52735 | 163.52078 | 33869 ft | 563 kts | 49° |
| 2026-05-07 10:19 | 49.56954 | 163.62224 | 33877 ft | 562 kts | 50° |
| 2026-05-07 10:19 | 49.61130 | 163.72306 | 33880 ft | 561 kts | 50° |
| 2026-05-07 10:20 | 49.65317 | 163.82453 | 33871 ft | 560 kts | 50° |
| 2026-05-07 10:20 | 49.69494 | 163.92614 | 33873 ft | 559 kts | 50° |
| 2026-05-07 10:21 | 49.73650 | 164.02761 | 33879 ft | 558 kts | 50° |
| 2026-05-07 10:21 | 49.77796 | 164.12922 | 33872 ft | 558 kts | 50° |
| 2026-05-07 10:22 | 49.81932 | 164.23096 | 33878 ft | 557 kts | 50° |
| 2026-05-07 10:22 | 49.86037 | 164.33246 | 33862 ft | 555 kts | 50° |
| 2026-05-07 10:23 | 49.90100 | 164.43326 | 33875 ft | 553 kts | 50° |
| 2026-05-07 10:23 | 49.94159 | 164.53430 | 33853 ft | 551 kts | 50° |
| 2026-05-07 10:24 | 49.98202 | 164.63528 | 33845 ft | 549 kts | 50° |
| 2026-05-07 10:24 | 50.02225 | 164.73618 | 33860 ft | 549 kts | 51° |
| 2026-05-07 10:25 | 50.06239 | 164.83725 | 33852 ft | 549 kts | 51° |
| 2026-05-07 10:25 | 50.10248 | 164.93862 | 33847 ft | 549 kts | 51° |
| 2026-05-07 10:26 | 50.14241 | 165.03994 | 33896 ft | 549 kts | 51° |
| 2026-05-07 10:26 | 50.17965 | 165.14436 | 33850 ft | 555 kts | 59° |
| 2026-05-07 10:27 | 50.20640 | 165.25765 | 33570 ft | 556 kts | 65° |
| 2026-05-07 10:27 | 50.21870 | 165.31518 | 33050 ft | 561 kts | 65° |
| 2026-05-07 10:27 | 50.23105 | 165.37311 | 32845 ft | 562 kts | 65° |
| 2026-05-07 10:28 | 50.25607 | 165.48913 | 32850 ft | 566 kts | 65° |
| 2026-05-07 10:28 | 50.28145 | 165.60532 | 32862 ft | 568 kts | 65° |
| 2026-05-07 10:29 | 50.30699 | 165.72231 | 32836 ft | 568 kts | 65° |
| 2026-05-07 10:29 | 50.33238 | 165.83938 | 32833 ft | 568 kts | 65° |
| 2026-05-07 10:30 | 50.37019 | 166.01517 | 32841 ft | 567 kts | 65° |
| 2026-05-07 10:30 | 50.39526 | 166.13259 | 32831 ft | 567 kts | 66° |
| 2026-05-07 10:31 | 50.42016 | 166.24992 | 32835 ft | 567 kts | 66° |
| 2026-05-07 10:31 | 50.44493 | 166.36730 | 32832 ft | 567 kts | 66° |
| 2026-05-07 10:32 | 50.46957 | 166.48473 | 32828 ft | 566 kts | 66° |
| 2026-05-07 10:32 | 50.49409 | 166.60225 | 32827 ft | 566 kts | 66° |
| 2026-05-07 10:33 | 50.51849 | 166.71990 | 32831 ft | 566 kts | 66° |
| 2026-05-07 10:33 | 50.54278 | 166.83773 | 32830 ft | 567 kts | 66° |
| 2026-05-07 10:34 | 50.56679 | 166.95489 | 32842 ft | 566 kts | 66° |
| 2026-05-07 10:34 | 50.59080 | 167.07279 | 32822 ft | 565 kts | 67° |
| 2026-05-07 10:35 | 50.61464 | 167.19051 | 32830 ft | 564 kts | 67° |
| 2026-05-07 10:35 | 50.63834 | 167.30823 | 32826 ft | 563 kts | 67° |
| 2026-05-07 10:36 | 50.66186 | 167.42575 | 32839 ft | 561 kts | 67° |
| 2026-05-07 10:36 | 50.68518 | 167.54299 | 32824 ft | 559 kts | 68° |
| 2026-05-07 10:37 | 50.70826 | 167.65980 | 32823 ft | 556 kts | 68° |
| 2026-05-07 10:37 | 50.73109 | 167.77596 | 32844 ft | 554 kts | 68° |
| 2026-05-07 10:38 | 50.75375 | 167.89194 | 32814 ft | 552 kts | 68° |
| 2026-05-07 10:38 | 50.77625 | 168.00782 | 32818 ft | 551 kts | 68° |
| 2026-05-07 10:39 | 50.79861 | 168.12370 | 32815 ft | 552 kts | 68° |
| 2026-05-07 10:39 | 50.82090 | 168.23985 | 32830 ft | 552 kts | 69° |
| 2026-05-07 10:40 | 50.84307 | 168.35618 | 32815 ft | 552 kts | 69° |
| 2026-05-07 10:40 | 50.86514 | 168.47266 | 32817 ft | 552 kts | 69° |
| 2026-05-07 10:41 | 50.88695 | 168.58855 | 32811 ft | 552 kts | 69° |
| 2026-05-07 10:41 | 50.90875 | 168.70498 | 32830 ft | 551 kts | 70° |
| 2026-05-07 10:42 | 50.93037 | 168.82130 | 32811 ft | 549 kts | 70° |
| 2026-05-07 10:42 | 50.95179 | 168.93728 | 32808 ft | 547 kts | 70° |
| 2026-05-07 10:43 | 50.97303 | 169.05300 | 32811 ft | 546 kts | 70° |
| 2026-05-07 10:43 | 50.99414 | 169.16862 | 32825 ft | 544 kts | 70° |
| 2026-05-07 10:44 | 51.01507 | 169.28407 | 32808 ft | 544 kts | 70° |
| 2026-05-07 10:44 | 51.03236 | 169.38001 | 32818 ft | 543 kts | 70° |
| 2026-05-07 10:45 | 51.05307 | 169.49556 | 32809 ft | 543 kts | 70° |
| 2026-05-07 10:45 | 51.07698 | 169.62975 | 32809 ft | 542 kts | 71° |
| 2026-05-07 10:46 | 51.09405 | 169.72640 | 32805 ft | 541 kts | 71° |
| 2026-05-07 10:46 | 51.11428 | 169.84153 | 32805 ft | 539 kts | 71° |
| 2026-05-07 10:47 | 51.13423 | 169.95574 | 32808 ft | 539 kts | 71° |
| 2026-05-07 10:47 | 51.15419 | 170.07076 | 32815 ft | 538 kts | 72° |
| 2026-05-07 10:48 | 51.17399 | 170.18558 | 32802 ft | 537 kts | 72° |
| 2026-05-07 10:48 | 51.19362 | 170.30021 | 32806 ft | 536 kts | 72° |
| 2026-05-07 10:49 | 51.21317 | 170.41512 | 32805 ft | 536 kts | 72° |
| 2026-05-07 10:49 | 51.23258 | 170.52991 | 32815 ft | 536 kts | 72° |
| 2026-05-07 10:50 | 51.25182 | 170.64453 | 32799 ft | 534 kts | 72° |
| 2026-05-07 10:50 | 51.27094 | 170.75922 | 32801 ft | 533 kts | 72° |
| 2026-05-07 10:51 | 51.28993 | 170.87381 | 32803 ft | 533 kts | 72° |
| 2026-05-07 10:51 | 51.30877 | 170.98829 | 32802 ft | 533 kts | 73° |
| 2026-05-07 10:52 | 51.32735 | 171.10196 | 32802 ft | 533 kts | 73° |
| 2026-05-07 10:52 | 51.34599 | 171.21676 | 32804 ft | 533 kts | 73° |
| 2026-05-07 10:53 | 51.36452 | 171.33171 | 32803 ft | 534 kts | 73° |
| 2026-05-07 10:53 | 51.38294 | 171.44672 | 32806 ft | 533 kts | 73° |
| 2026-05-07 10:54 | 51.40100 | 171.56180 | 32796 ft | 533 kts | 76° |
| 2026-05-07 10:54 | 51.41424 | 171.67896 | 32999 ft | 536 kts | 78° |
| 2026-05-07 10:55 | 51.42031 | 171.73784 | 33340 ft | 535 kts | 79° |
| 2026-05-07 10:55 | 51.42631 | 171.79666 | 33701 ft | 533 kts | 79° |
| 2026-05-07 10:55 | 51.43230 | 171.85518 | 34031 ft | 531 kts | 79° |
| 2026-05-07 10:55 | 51.43830 | 171.91331 | 34411 ft | 527 kts | 79° |
| 2026-05-07 10:56 | 51.44431 | 171.97119 | 34672 ft | 526 kts | 79° |
| 2026-05-07 10:56 | 51.45034 | 172.02916 | 34729 ft | 529 kts | 79° |
| 2026-05-07 10:56 | 51.46245 | 172.14584 | 34805 ft | 530 kts | 79° |
| 2026-05-07 10:57 | 51.47440 | 172.26226 | 34794 ft | 528 kts | 79° |
| 2026-05-07 10:57 | 51.48615 | 172.37822 | 34810 ft | 525 kts | 79° |
| 2026-05-07 10:58 | 51.49774 | 172.49376 | 34799 ft | 524 kts | 79° |
| 2026-05-07 10:58 | 51.50911 | 172.60823 | 34802 ft | 522 kts | 79° |
| 2026-05-07 10:59 | 51.52042 | 172.72331 | 34800 ft | 522 kts | 79° |
| 2026-05-07 10:59 | 51.53161 | 172.83843 | 34811 ft | 521 kts | 80° |
| 2026-05-07 11:00 | 51.54268 | 172.95345 | 34800 ft | 521 kts | 80° |
| 2026-05-07 11:00 | 51.55364 | 173.06857 | 34803 ft | 521 kts | 80° |
| 2026-05-07 11:01 | 51.56449 | 173.18372 | 34800 ft | 521 kts | 80° |
| 2026-05-07 11:01 | 51.57522 | 173.29896 | 34806 ft | 521 kts | 81° |
| 2026-05-07 11:02 | 51.58583 | 173.41411 | 34797 ft | 520 kts | 81° |
| 2026-05-07 11:02 | 51.59632 | 173.52926 | 34799 ft | 520 kts | 81° |
| 2026-05-07 11:03 | 51.60667 | 173.64419 | 34802 ft | 519 kts | 81° |
| 2026-05-07 11:03 | 51.61692 | 173.75925 | 34809 ft | 518 kts | 81° |
| 2026-05-07 11:04 | 51.62702 | 173.87392 | 34801 ft | 518 kts | 81° |
| 2026-05-07 11:04 | 51.63700 | 173.98859 | 34801 ft | 517 kts | 81° |
| 2026-05-07 11:05 | 51.64686 | 174.10326 | 34802 ft | 516 kts | 81° |
| 2026-05-07 11:05 | 51.65653 | 174.21698 | 34804 ft | 516 kts | 82° |
| 2026-05-07 11:06 | 51.66614 | 174.33135 | 34807 ft | 515 kts | 82° |
| 2026-05-07 11:06 | 51.67563 | 174.44560 | 34804 ft | 514 kts | 82° |
| 2026-05-07 11:07 | 51.68141 | 174.51597 | 34812 ft | 514 kts | 82° |
| 2026-05-07 11:08 | 51.69029 | 174.62508 | 34805 ft | 513 kts | 82° |
| 2026-05-07 11:08 | 51.69945 | 174.73892 | 34803 ft | 511 kts | 82° |
| 2026-05-07 11:09 | 51.70847 | 174.85243 | 34803 ft | 510 kts | 82° |
| 2026-05-07 11:09 | 51.71736 | 174.96574 | 34804 ft | 509 kts | 83° |
| 2026-05-07 11:10 | 51.72612 | 175.07892 | 34808 ft | 508 kts | 83° |
| 2026-05-07 11:10 | 51.73477 | 175.19198 | 34813 ft | 508 kts | 83° |
| 2026-05-07 11:11 | 51.74331 | 175.30518 | 34807 ft | 507 kts | 83° |
| 2026-05-07 11:11 | 51.75173 | 175.41823 | 34808 ft | 507 kts | 83° |
| 2026-05-07 11:12 | 51.75998 | 175.53043 | 34808 ft | 507 kts | 83° |
| 2026-05-07 11:12 | 51.76817 | 175.64336 | 34813 ft | 506 kts | 83° |
| 2026-05-07 11:13 | 51.77625 | 175.75631 | 34816 ft | 506 kts | 83° |
| 2026-05-07 11:13 | 51.78422 | 175.86928 | 34817 ft | 506 kts | 83° |
| 2026-05-07 11:14 | 51.79209 | 175.98240 | 34817 ft | 507 kts | 83° |
| 2026-05-07 11:14 | 51.79986 | 176.09574 | 34817 ft | 507 kts | 84° |
| 2026-05-07 11:15 | 51.80751 | 176.20898 | 34823 ft | 506 kts | 84° |
| 2026-05-07 11:15 | 51.81504 | 176.32189 | 34816 ft | 505 kts | 84° |
| 2026-05-07 11:16 | 51.82244 | 176.43461 | 34820 ft | 504 kts | 84° |
| 2026-05-07 11:16 | 51.82970 | 176.54699 | 34821 ft | 503 kts | 84° |
| 2026-05-07 11:17 | 51.83686 | 176.65935 | 34824 ft | 502 kts | 84° |
| 2026-05-07 11:17 | 51.84389 | 176.77148 | 34825 ft | 501 kts | 84° |
| 2026-05-07 11:18 | 51.85081 | 176.88359 | 34826 ft | 500 kts | 84° |
| 2026-05-07 11:18 | 51.85762 | 176.99550 | 34828 ft | 500 kts | 85° |
| 2026-05-07 11:19 | 51.86432 | 177.10755 | 34833 ft | 499 kts | 85° |
| 2026-05-07 11:19 | 51.87090 | 177.21929 | 34827 ft | 499 kts | 85° |
| 2026-05-07 11:20 | 51.87731 | 177.33018 | 34826 ft | 498 kts | 85° |
| 2026-05-07 11:20 | 51.88366 | 177.44165 | 34825 ft | 497 kts | 85° |
| 2026-05-07 11:21 | 51.88989 | 177.55305 | 34824 ft | 497 kts | 85° |
| 2026-05-07 11:21 | 51.89601 | 177.66434 | 34826 ft | 496 kts | 86° |
| 2026-05-07 11:22 | 51.90202 | 177.77547 | 34823 ft | 495 kts | 86° |
| 2026-05-07 11:22 | 51.90792 | 177.88651 | 34825 ft | 495 kts | 86° |
| 2026-05-07 11:23 | 51.91371 | 177.99754 | 34826 ft | 495 kts | 86° |
| 2026-05-07 11:23 | 51.91939 | 178.10855 | 34832 ft | 494 kts | 86° |
| 2026-05-07 11:24 | 51.92496 | 178.21939 | 34820 ft | 493 kts | 86° |
| 2026-05-07 11:24 | 51.93041 | 178.33010 | 34829 ft | 493 kts | 86° |
| 2026-05-07 11:25 | 51.93576 | 178.44073 | 34828 ft | 492 kts | 86° |
| 2026-05-07 11:25 | 51.94101 | 178.55142 | 34829 ft | 492 kts | 87° |
| 2026-05-07 11:26 | 51.94613 | 178.66182 | 34811 ft | 491 kts | 87° |
| 2026-05-07 11:26 | 51.95116 | 178.77223 | 34816 ft | 490 kts | 87° |
| 2026-05-07 11:27 | 51.95606 | 178.88234 | 34812 ft | 489 kts | 87° |
| 2026-05-07 11:27 | 51.96082 | 178.99154 | 34817 ft | 489 kts | 87° |
| 2026-05-07 11:28 | 51.96551 | 179.10137 | 34814 ft | 488 kts | 88° |
| 2026-05-07 11:28 | 51.97009 | 179.21098 | 34820 ft | 487 kts | 88° |
| 2026-05-07 11:29 | 51.97455 | 179.32045 | 34824 ft | 486 kts | 88° |
| 2026-05-07 11:29 | 51.97892 | 179.42999 | 34819 ft | 486 kts | 88° |
| 2026-05-07 11:30 | 51.98318 | 179.53933 | 34805 ft | 485 kts | 88° |
| 2026-05-07 11:30 | 51.98663 | 179.62998 | 34818 ft | 484 kts | 88° |
| 2026-05-07 11:31 | 51.99069 | 179.73901 | 34810 ft | 483 kts | 88° |
| 2026-05-07 11:31 | 51.99465 | 179.84781 | 34811 ft | 482 kts | 88° |
| 2026-05-07 11:32 | 52.00167 | -179.99019 | 34800 ft | 483 kts | 83° |
| 2026-05-07 11:33 | 52.01597 | -179.88352 | 34811 ft | 484 kts | 78° |
| 2026-05-07 11:33 | 52.03176 | -179.77728 | 34810 ft | 484 kts | 78° |
| 2026-05-07 11:34 | 52.04723 | -179.67096 | 34803 ft | 484 kts | 79° |
| 2026-05-07 11:34 | 52.06236 | -179.56469 | 34806 ft | 483 kts | 79° |
| 2026-05-07 11:35 | 52.07732 | -179.45820 | 34805 ft | 482 kts | 79° |
| 2026-05-07 11:35 | 52.09208 | -179.35242 | 34805 ft | 482 kts | 79° |
| 2026-05-07 11:36 | 52.10692 | -179.24535 | 34806 ft | 482 kts | 79° |
| 2026-05-07 11:36 | 52.12157 | -179.13895 | 34802 ft | 482 kts | 79° |
| 2026-05-07 11:37 | 52.13601 | -179.03330 | 34803 ft | 482 kts | 80° |
| 2026-05-07 11:37 | 52.15047 | -178.92686 | 34794 ft | 481 kts | 80° |
| 2026-05-07 11:38 | 52.16480 | -178.82050 | 34805 ft | 481 kts | 80° |
| 2026-05-07 11:38 | 52.17901 | -178.71426 | 34802 ft | 480 kts | 80° |
| 2026-05-07 11:39 | 52.19314 | -178.60780 | 34800 ft | 480 kts | 80° |
| 2026-05-07 11:39 | 52.20715 | -178.50151 | 34791 ft | 480 kts | 81° |
| 2026-05-07 11:40 | 52.22108 | -178.39504 | 34802 ft | 479 kts | 81° |
| 2026-05-07 11:40 | 52.23488 | -178.28873 | 34802 ft | 479 kts | 81° |
| 2026-05-07 11:41 | 52.24858 | -178.18242 | 34799 ft | 479 kts | 81° |
| 2026-05-07 11:41 | 52.26219 | -178.07597 | 34800 ft | 478 kts | 81° |
| 2026-05-07 11:42 | 52.27568 | -177.96967 | 34794 ft | 476 kts | 82° |
| 2026-05-07 11:42 | 52.28899 | -177.86405 | 34794 ft | 474 kts | 82° |
| 2026-05-07 11:43 | 52.30216 | -177.75868 | 34790 ft | 472 kts | 82° |
| 2026-05-07 11:43 | 52.31510 | -177.65436 | 34793 ft | 470 kts | 82° |
| 2026-05-07 11:44 | 52.32797 | -177.54972 | 34798 ft | 469 kts | 82° |
| 2026-05-07 11:44 | 52.34073 | -177.44525 | 34795 ft | 468 kts | 83° |
| 2026-05-07 11:45 | 52.35335 | -177.34103 | 34796 ft | 466 kts | 83° |
| 2026-05-07 11:45 | 52.36585 | -177.23699 | 34798 ft | 466 kts | 83° |
| 2026-05-07 11:46 | 52.37825 | -177.13300 | 34795 ft | 465 kts | 83° |
| 2026-05-07 11:46 | 52.39055 | -177.02899 | 34797 ft | 465 kts | 83° |
| 2026-05-07 11:47 | 52.40276 | -176.92502 | 34788 ft | 464 kts | 83° |
| 2026-05-07 11:47 | 52.41484 | -176.82129 | 34805 ft | 463 kts | 83° |
| 2026-05-07 11:48 | 52.42680 | -176.71765 | 34807 ft | 463 kts | 84° |
| 2026-05-07 11:48 | 52.43867 | -176.61406 | 34811 ft | 462 kts | 84° |
| 2026-05-07 11:49 | 52.45045 | -176.51039 | 34798 ft | 462 kts | 84° |
| 2026-05-07 11:49 | 52.46203 | -176.40760 | 34807 ft | 461 kts | 84° |
| 2026-05-07 11:50 | 52.47358 | -176.30426 | 34794 ft | 460 kts | 84° |
| 2026-05-07 11:50 | 52.48502 | -176.20112 | 34792 ft | 459 kts | 84° |
| 2026-05-07 11:51 | 52.49633 | -176.09818 | 34800 ft | 458 kts | 84° |
| 2026-05-07 11:51 | 52.50750 | -175.99566 | 34772 ft | 457 kts | 85° |
| 2026-05-07 11:52 | 52.51865 | -175.89245 | 34782 ft | 456 kts | 85° |
| 2026-05-07 11:52 | 52.52963 | -175.78997 | 34787 ft | 455 kts | 85° |
| 2026-05-07 11:53 | 52.54050 | -175.68759 | 34782 ft | 455 kts | 85° |
| 2026-05-07 11:53 | 52.55128 | -175.58524 | 34783 ft | 455 kts | 85° |
| 2026-05-07 11:54 | 52.56189 | -175.48354 | 34771 ft | 454 kts | 85° |
| 2026-05-07 11:54 | 52.57249 | -175.38122 | 34772 ft | 454 kts | 85° |
| 2026-05-07 11:55 | 52.58297 | -175.27905 | 34787 ft | 453 kts | 85° |
| 2026-05-07 11:55 | 52.59335 | -175.17688 | 34785 ft | 453 kts | 85° |
| 2026-05-07 11:56 | 52.60364 | -175.07472 | 34788 ft | 453 kts | 85° |
| 2026-05-07 11:56 | 52.61384 | -174.97255 | 34776 ft | 452 kts | 85° |
| 2026-05-07 11:57 | 52.62394 | -174.87049 | 34799 ft | 452 kts | 85° |
| 2026-05-07 11:57 | 52.63394 | -174.76847 | 34800 ft | 451 kts | 85° |
| 2026-05-07 11:58 | 52.64385 | -174.66646 | 34800 ft | 451 kts | 85° |
| 2026-05-07 11:58 | 52.65367 | -174.56437 | 34809 ft | 452 kts | 85° |
| 2026-05-07 11:59 | 52.66342 | -174.46206 | 34816 ft | 453 kts | 85° |
| 2026-05-07 11:59 | 52.67311 | -174.35938 | 34817 ft | 454 kts | 85° |
| 2026-05-07 12:00 | 52.68273 | -174.25655 | 34817 ft | 455 kts | 86° |
| 2026-05-07 12:00 | 52.69227 | -174.15350 | 34823 ft | 455 kts | 86° |
| 2026-05-07 12:01 | 52.70168 | -174.05094 | 34821 ft | 455 kts | 86° |
| 2026-05-07 12:01 | 52.71105 | -173.94777 | 34784 ft | 455 kts | 86° |
| 2026-05-07 12:02 | 52.72033 | -173.84459 | 34799 ft | 455 kts | 86° |
| 2026-05-07 12:02 | 52.72951 | -173.74133 | 34804 ft | 455 kts | 86° |
| 2026-05-07 12:03 | 52.73862 | -173.63793 | 34800 ft | 455 kts | 86° |
| 2026-05-07 12:03 | 52.74765 | -173.53435 | 34803 ft | 456 kts | 86° |
| 2026-05-07 12:04 | 52.75658 | -173.43087 | 34789 ft | 456 kts | 86° |
| 2026-05-07 12:04 | 52.76543 | -173.32719 | 34806 ft | 455 kts | 86° |
| 2026-05-07 12:05 | 52.77418 | -173.22368 | 34812 ft | 456 kts | 86° |
| 2026-05-07 12:05 | 52.78280 | -173.12054 | 34817 ft | 456 kts | 86° |
| 2026-05-07 12:06 | 52.79137 | -173.01674 | 34818 ft | 456 kts | 86° |
| 2026-05-07 12:06 | 52.79986 | -172.91289 | 34787 ft | 456 kts | 85° |
| 2026-05-07 12:07 | 52.80826 | -172.80898 | 34811 ft | 457 kts | 85° |
| 2026-05-07 12:07 | 52.81227 | -172.75884 | 34817 ft | 457 kts | 85° |
| 2026-05-07 12:08 | 52.81294 | -172.75046 | 34815 ft | 457 kts | 85° |
| 2026-05-07 12:08 | 52.82122 | -172.64625 | 34818 ft | 458 kts | 86° |
| 2026-05-07 12:09 | 52.82944 | -172.54163 | 34824 ft | 459 kts | 86° |
| 2026-05-07 12:09 | 52.83757 | -172.43695 | 34824 ft | 459 kts | 86° |
| 2026-05-07 12:10 | 52.84562 | -172.33197 | 34816 ft | 460 kts | 85° |
| 2026-05-07 12:10 | 52.85358 | -172.22698 | 34824 ft | 460 kts | 86° |
| 2026-05-07 12:11 | 52.86140 | -172.12252 | 34828 ft | 461 kts | 86° |
| 2026-05-07 12:11 | 52.86920 | -172.01714 | 34828 ft | 461 kts | 86° |
| 2026-05-07 12:12 | 52.87689 | -171.91182 | 34821 ft | 461 kts | 86° |
| 2026-05-07 12:12 | 52.88449 | -171.80646 | 34834 ft | 461 kts | 86° |
| 2026-05-07 12:13 | 52.89201 | -171.70101 | 34836 ft | 461 kts | 86° |
| 2026-05-07 12:13 | 52.89940 | -171.59593 | 34835 ft | 462 kts | 86° |
| 2026-05-07 12:14 | 52.90673 | -171.49028 | 34835 ft | 462 kts | 86° |
| 2026-05-07 12:14 | 52.91398 | -171.38450 | 34839 ft | 462 kts | 86° |
| 2026-05-07 12:15 | 52.92113 | -171.27866 | 34831 ft | 462 kts | 86° |
| 2026-05-07 12:15 | 52.92820 | -171.17271 | 34835 ft | 463 kts | 85° |
| 2026-05-07 12:16 | 52.93519 | -171.06653 | 34849 ft | 464 kts | 85° |
| 2026-05-07 12:16 | 52.94210 | -170.95994 | 34849 ft | 465 kts | 86° |
| 2026-05-07 12:17 | 52.94892 | -170.85329 | 34841 ft | 466 kts | 86° |
| 2026-05-07 12:17 | 52.95453 | -170.76428 | 34847 ft | 467 kts | 85° |
| 2026-05-07 12:18 | 52.96230 | -170.63948 | 34853 ft | 468 kts | 85° |
| 2026-05-07 12:18 | 52.96889 | -170.53187 | 34853 ft | 469 kts | 85° |
| 2026-05-07 12:19 | 52.97434 | -170.44166 | 34857 ft | 469 kts | 86° |
| 2026-05-07 12:19 | 52.98074 | -170.33404 | 34859 ft | 469 kts | 86° |
| 2026-05-07 12:20 | 52.98706 | -170.22630 | 34855 ft | 469 kts | 85° |
| 2026-05-07 12:20 | 52.99328 | -170.11861 | 34866 ft | 469 kts | 86° |
| 2026-05-07 12:21 | 52.99960 | -170.01148 | 34872 ft | 469 kts | 84° |
| 2026-05-07 12:21 | 53.01286 | -169.90535 | 34880 ft | 470 kts | 78° |
| 2026-05-07 12:22 | 53.02846 | -169.79973 | 34872 ft | 470 kts | 78° |
| 2026-05-07 12:22 | 53.04381 | -169.69416 | 34870 ft | 469 kts | 78° |
| 2026-05-07 12:23 | 53.05882 | -169.58870 | 34884 ft | 469 kts | 77° |
| 2026-05-07 12:23 | 53.07371 | -169.48281 | 34877 ft | 471 kts | 77° |
| 2026-05-07 12:24 | 53.08853 | -169.37660 | 34874 ft | 472 kts | 78° |
| 2026-05-07 12:24 | 53.10331 | -169.26995 | 34884 ft | 474 kts | 78° |
| 2026-05-07 12:25 | 53.11804 | -169.16296 | 34876 ft | 475 kts | 78° |
| 2026-05-07 12:25 | 53.13269 | -169.05577 | 34887 ft | 475 kts | 78° |
| 2026-05-07 12:26 | 53.14716 | -168.94915 | 34880 ft | 475 kts | 78° |
| 2026-05-07 12:26 | 53.16160 | -168.84190 | 34888 ft | 474 kts | 78° |
| 2026-05-07 12:27 | 53.17592 | -168.73481 | 34881 ft | 474 kts | 78° |
| 2026-05-07 12:27 | 53.19014 | -168.62773 | 34914 ft | 471 kts | 78° |
| 2026-05-07 12:28 | 53.20415 | -168.52133 | 34887 ft | 470 kts | 78° |
| 2026-05-07 12:28 | 53.21818 | -168.41395 | 34903 ft | 478 kts | 78° |
| 2026-05-07 12:29 | 53.23226 | -168.30547 | 34914 ft | 479 kts | 78° |
| 2026-05-07 12:29 | 53.24628 | -168.19666 | 34917 ft | 479 kts | 78° |
| 2026-05-07 12:30 | 53.26017 | -168.08790 | 34918 ft | 478 kts | 78° |
| 2026-05-07 12:30 | 53.27386 | -167.97999 | 34910 ft | 472 kts | 78° |
| 2026-05-07 12:31 | 53.28731 | -167.87301 | 34926 ft | 470 kts | 78° |
| 2026-05-07 12:31 | 53.30069 | -167.76587 | 34929 ft | 471 kts | 78° |
| 2026-05-07 12:32 | 53.31392 | -167.65910 | 34924 ft | 473 kts | 78° |
| 2026-05-07 12:32 | 53.32719 | -167.55111 | 34933 ft | 474 kts | 77° |
| 2026-05-07 12:33 | 53.34693 | -167.38884 | 34926 ft | 474 kts | 77° |
| 2026-05-07 12:33 | 53.35993 | -167.28086 | 34931 ft | 473 kts | 77° |
| 2026-05-07 12:34 | 53.37283 | -167.17288 | 34935 ft | 473 kts | 78° |
| 2026-05-07 12:34 | 53.38564 | -167.06476 | 34941 ft | 473 kts | 78° |
| 2026-05-07 12:35 | 53.39837 | -166.95661 | 34937 ft | 474 kts | 78° |
| 2026-05-07 12:35 | 53.41100 | -166.84826 | 34961 ft | 474 kts | 78° |
| 2026-05-07 12:36 | 53.42355 | -166.73954 | 34968 ft | 474 kts | 78° |
| 2026-05-07 12:36 | 53.43602 | -166.63082 | 34958 ft | 475 kts | 78° |
| 2026-05-07 12:37 | 53.44839 | -166.52202 | 34970 ft | 475 kts | 78° |
| 2026-05-07 12:37 | 53.46064 | -166.41314 | 34976 ft | 475 kts | 78° |
| 2026-05-07 12:38 | 53.47282 | -166.30410 | 34970 ft | 477 kts | 77° |
| 2026-05-07 12:38 | 53.48496 | -166.19443 | 34979 ft | 479 kts | 78° |
| 2026-05-07 12:39 | 53.49704 | -166.08431 | 34968 ft | 480 kts | 78° |
| 2026-05-07 12:39 | 53.50898 | -165.97450 | 34963 ft | 481 kts | 78° |
| 2026-05-07 12:40 | 53.52091 | -165.86382 | 34967 ft | 481 kts | 78° |
| 2026-05-07 12:40 | 53.53272 | -165.75314 | 34968 ft | 481 kts | 78° |
| 2026-05-07 12:41 | 53.54444 | -165.64236 | 34967 ft | 481 kts | 78° |
| 2026-05-07 12:41 | 53.55605 | -165.53162 | 34966 ft | 480 kts | 78° |
| 2026-05-07 12:42 | 53.56754 | -165.42097 | 34976 ft | 480 kts | 78° |
| 2026-05-07 12:42 | 53.57891 | -165.31038 | 34980 ft | 480 kts | 78° |
| 2026-05-07 12:43 | 53.59018 | -165.19975 | 34974 ft | 480 kts | 78° |
| 2026-05-07 12:43 | 53.60138 | -165.08879 | 34981 ft | 481 kts | 78° |
| 2026-05-07 12:44 | 53.61251 | -164.97747 | 34989 ft | 483 kts | 78° |
| 2026-05-07 12:44 | 53.62348 | -164.86653 | 34987 ft | 484 kts | 78° |
| 2026-05-07 12:45 | 53.63445 | -164.75458 | 34992 ft | 484 kts | 78° |
| 2026-05-07 12:45 | 53.64531 | -164.64250 | 34990 ft | 485 kts | 78° |
| 2026-05-07 12:46 | 53.65606 | -164.53054 | 34993 ft | 484 kts | 78° |
| 2026-05-07 12:46 | 53.66671 | -164.41841 | 34996 ft | 483 kts | 78° |
| 2026-05-07 12:47 | 53.67723 | -164.30649 | 34994 ft | 483 kts | 78° |
| 2026-05-07 12:47 | 53.68764 | -164.19463 | 35004 ft | 482 kts | 79° |
| 2026-05-07 12:48 | 53.69795 | -164.08265 | 35007 ft | 483 kts | 78° |
| 2026-05-07 12:48 | 53.70816 | -163.97055 | 35007 ft | 483 kts | 78° |
| 2026-05-07 12:49 | 53.71828 | -163.85832 | 35006 ft | 484 kts | 79° |
| 2026-05-07 12:49 | 53.72831 | -163.74584 | 35006 ft | 485 kts | 79° |
| 2026-05-07 12:50 | 53.73825 | -163.63304 | 35013 ft | 485 kts | 79° |
| 2026-05-07 12:50 | 53.74802 | -163.52094 | 35010 ft | 486 kts | 79° |
| 2026-05-07 12:51 | 53.75776 | -163.40799 | 35011 ft | 486 kts | 79° |
| 2026-05-07 12:51 | 53.76740 | -163.29481 | 35008 ft | 486 kts | 79° |
| 2026-05-07 12:52 | 53.77693 | -163.18175 | 35018 ft | 486 kts | 79° |
| 2026-05-07 12:52 | 53.78634 | -163.06876 | 35021 ft | 485 kts | 79° |
| 2026-05-07 12:53 | 53.79564 | -162.95568 | 35025 ft | 485 kts | 79° |
| 2026-05-07 12:53 | 53.80485 | -162.84248 | 35015 ft | 486 kts | 79° |
| 2026-05-07 12:54 | 53.81395 | -162.72913 | 35024 ft | 486 kts | 79° |
| 2026-05-07 12:54 | 53.82296 | -162.61562 | 35020 ft | 487 kts | 79° |
| 2026-05-07 12:55 | 53.83187 | -162.50193 | 35025 ft | 487 kts | 80° |
| 2026-05-07 12:55 | 53.84062 | -162.38894 | 35029 ft | 487 kts | 80° |
| 2026-05-07 12:56 | 53.84931 | -162.27519 | 35027 ft | 487 kts | 80° |
| 2026-05-07 12:56 | 53.85789 | -162.16148 | 35032 ft | 487 kts | 80° |
| 2026-05-07 12:57 | 53.86636 | -162.04772 | 35026 ft | 487 kts | 80° |
| 2026-05-07 12:57 | 53.87473 | -161.93383 | 35034 ft | 486 kts | 81° |
| 2026-05-07 12:58 | 53.88297 | -161.82018 | 35039 ft | 486 kts | 81° |
| 2026-05-07 12:58 | 53.89112 | -161.70632 | 35034 ft | 487 kts | 81° |
| 2026-05-07 12:59 | 53.89917 | -161.59235 | 35037 ft | 487 kts | 81° |
| 2026-05-07 12:59 | 53.90711 | -161.47821 | 35036 ft | 488 kts | 81° |
| 2026-05-07 13:00 | 53.91496 | -161.36391 | 35043 ft | 488 kts | 81° |
| 2026-05-07 13:00 | 53.92269 | -161.24964 | 35047 ft | 488 kts | 82° |
| 2026-05-07 13:01 | 53.93032 | -161.13513 | 35040 ft | 488 kts | 82° |
| 2026-05-07 13:01 | 53.93783 | -161.02078 | 35040 ft | 487 kts | 82° |
| 2026-05-07 13:02 | 53.94523 | -160.90651 | 35048 ft | 487 kts | 82° |
| 2026-05-07 13:02 | 53.95130 | -160.81154 | 35048 ft | 486 kts | 82° |
| 2026-05-07 13:03 | 53.95848 | -160.69741 | 35050 ft | 486 kts | 82° |
| 2026-05-07 13:03 | 53.96670 | -160.56467 | 35044 ft | 486 kts | 83° |
| 2026-05-07 13:04 | 53.97253 | -160.46894 | 35047 ft | 486 kts | 83° |
| 2026-05-07 13:04 | 53.97940 | -160.35465 | 35049 ft | 486 kts | 83° |
| 2026-05-07 13:05 | 53.98616 | -160.24030 | 35052 ft | 487 kts | 83° |
| 2026-05-07 13:05 | 53.99281 | -160.12578 | 35053 ft | 487 kts | 83° |
| 2026-05-07 13:06 | 53.99938 | -160.01118 | 35048 ft | 487 kts | 83° |
| 2026-05-07 13:06 | 54.00484 | -159.89703 | 35054 ft | 487 kts | 84° |
| 2026-05-07 13:07 | 54.00919 | -159.78186 | 35058 ft | 487 kts | 85° |
| 2026-05-07 13:07 | 54.01132 | -159.72393 | 35056 ft | 487 kts | 85° |
| 2026-05-07 13:08 | 54.01158 | -159.71713 | 35053 ft | 487 kts | 85° |
| 2026-05-07 13:08 | 54.01587 | -159.60212 | 35058 ft | 487 kts | 85° |
| 2026-05-07 13:09 | 54.02019 | -159.48719 | 35064 ft | 487 kts | 86° |
| 2026-05-07 13:09 | 54.02444 | -159.37193 | 35058 ft | 488 kts | 86° |
| 2026-05-07 13:10 | 54.02859 | -159.25668 | 35059 ft | 489 kts | 86° |
| 2026-05-07 13:10 | 54.03262 | -159.14115 | 35058 ft | 490 kts | 86° |
| 2026-05-07 13:11 | 54.03655 | -159.02547 | 35061 ft | 490 kts | 86° |
| 2026-05-07 13:11 | 54.04036 | -158.90971 | 35059 ft | 490 kts | 87° |
| 2026-05-07 13:12 | 54.04407 | -158.79393 | 35058 ft | 490 kts | 87° |
| 2026-05-07 13:12 | 54.04767 | -158.67807 | 35057 ft | 490 kts | 87° |
| 2026-05-07 13:13 | 54.05115 | -158.56219 | 35060 ft | 490 kts | 87° |
| 2026-05-07 13:13 | 54.05450 | -158.44709 | 35067 ft | 490 kts | 88° |
| 2026-05-07 13:14 | 54.05776 | -158.33124 | 35062 ft | 490 kts | 88° |
| 2026-05-07 13:14 | 54.06091 | -158.21537 | 35066 ft | 490 kts | 88° |
| 2026-05-07 13:15 | 54.06395 | -158.09946 | 35063 ft | 490 kts | 88° |
| 2026-05-07 13:15 | 54.06688 | -157.98349 | 35068 ft | 490 kts | 88° |
| 2026-05-07 13:16 | 54.06969 | -157.86741 | 35069 ft | 491 kts | 89° |
| 2026-05-07 13:16 | 54.07240 | -157.75134 | 35068 ft | 491 kts | 89° |
| 2026-05-07 13:17 | 54.07500 | -157.63524 | 35063 ft | 491 kts | 89° |
| 2026-05-07 13:17 | 54.07748 | -157.51912 | 35062 ft | 491 kts | 89° |
| 2026-05-07 13:18 | 54.07985 | -157.40306 | 35071 ft | 491 kts | 89° |
| 2026-05-07 13:18 | 54.08211 | -157.28682 | 35071 ft | 490 kts | 89° |
| 2026-05-07 13:19 | 54.08426 | -157.17075 | 35063 ft | 490 kts | 89° |
| 2026-05-07 13:19 | 54.08628 | -157.05536 | 35066 ft | 490 kts | 89° |
| 2026-05-07 13:20 | 54.08820 | -156.93934 | 35068 ft | 490 kts | 90° |
| 2026-05-07 13:20 | 54.09001 | -156.82326 | 35072 ft | 490 kts | 90° |
| 2026-05-07 13:21 | 54.09171 | -156.70685 | 35071 ft | 491 kts | 90° |
| 2026-05-07 13:21 | 54.09330 | -156.59062 | 35067 ft | 491 kts | 90° |
| 2026-05-07 13:22 | 54.09477 | -156.47500 | 35070 ft | 491 kts | 90° |
| 2026-05-07 13:22 | 54.09614 | -156.35861 | 35068 ft | 491 kts | 90° |
| 2026-05-07 13:23 | 54.09740 | -156.24203 | 35071 ft | 492 kts | 91° |
| 2026-05-07 13:23 | 54.09854 | -156.12555 | 35071 ft | 492 kts | 91° |
| 2026-05-07 13:24 | 54.09957 | -156.00907 | 35068 ft | 491 kts | 91° |
| 2026-05-07 13:24 | 54.10049 | -155.89262 | 35071 ft | 492 kts | 91° |
| 2026-05-07 13:25 | 54.10129 | -155.77613 | 35070 ft | 492 kts | 91° |
| 2026-05-07 13:25 | 54.10199 | -155.65965 | 35069 ft | 492 kts | 91° |
| 2026-05-07 13:26 | 54.10257 | -155.54308 | 35064 ft | 492 kts | 91° |
| 2026-05-07 13:26 | 54.10304 | -155.42736 | 35064 ft | 491 kts | 92° |
| 2026-05-07 13:27 | 54.10339 | -155.31088 | 35070 ft | 492 kts | 92° |
| 2026-05-07 13:27 | 54.10363 | -155.19434 | 35072 ft | 492 kts | 92° |
| 2026-05-07 13:28 | 54.10376 | -155.07773 | 35072 ft | 492 kts | 92° |
| 2026-05-07 13:28 | 54.10378 | -154.96105 | 35069 ft | 492 kts | 92° |
| 2026-05-07 13:29 | 54.10369 | -154.84429 | 35064 ft | 493 kts | 93° |
| 2026-05-07 13:29 | 54.10348 | -154.72769 | 35075 ft | 493 kts | 93° |
| 2026-05-07 13:30 | 54.10316 | -154.61078 | 35071 ft | 493 kts | 93° |
| 2026-05-07 13:30 | 54.10273 | -154.49390 | 35077 ft | 493 kts | 93° |
| 2026-05-07 13:31 | 54.10218 | -154.37678 | 35073 ft | 494 kts | 93° |
| 2026-05-07 13:31 | 54.10153 | -154.25979 | 35063 ft | 494 kts | 94° |
| 2026-05-07 13:32 | 54.10075 | -154.14260 | 35065 ft | 495 kts | 94° |
| 2026-05-07 13:32 | 54.09985 | -154.02516 | 35070 ft | 495 kts | 94° |
| 2026-05-07 13:33 | 54.09884 | -153.90761 | 35075 ft | 496 kts | 94° |
| 2026-05-07 13:33 | 54.09773 | -153.79105 | 35068 ft | 496 kts | 94° |
| 2026-05-07 13:34 | 54.09584 | -153.61468 | 35067 ft | 496 kts | 95° |
| 2026-05-07 13:35 | 54.09443 | -153.49724 | 35075 ft | 496 kts | 95° |
| 2026-05-07 13:35 | 54.09290 | -153.37959 | 35074 ft | 497 kts | 95° |
| 2026-05-07 13:36 | 54.09126 | -153.26185 | 35074 ft | 497 kts | 95° |
| 2026-05-07 13:36 | 54.08950 | -153.14388 | 35051 ft | 498 kts | 96° |
| 2026-05-07 13:37 | 54.08763 | -153.02600 | 35068 ft | 499 kts | 96° |
| 2026-05-07 13:37 | 54.08563 | -152.90772 | 35080 ft | 500 kts | 96° |
| 2026-05-07 13:38 | 54.08352 | -152.78908 | 35077 ft | 501 kts | 96° |
| 2026-05-07 13:38 | 54.08128 | -152.67033 | 35074 ft | 502 kts | 97° |
| 2026-05-07 13:39 | 54.07894 | -152.55154 | 35048 ft | 502 kts | 97° |
| 2026-05-07 13:39 | 54.07649 | -152.43362 | 35070 ft | 502 kts | 98° |
| 2026-05-07 13:40 | 54.07389 | -152.31479 | 35077 ft | 502 kts | 98° |
| 2026-05-07 13:40 | 54.07118 | -152.19585 | 35083 ft | 503 kts | 98° |
| 2026-05-07 13:41 | 54.06835 | -152.07685 | 35080 ft | 503 kts | 98° |
| 2026-05-07 13:41 | 54.06541 | -151.95795 | 35081 ft | 503 kts | 98° |
| 2026-05-07 13:42 | 54.06234 | -151.83885 | 35075 ft | 504 kts | 98° |
| 2026-05-07 13:42 | 54.05916 | -151.71974 | 35077 ft | 504 kts | 98° |
| 2026-05-07 13:43 | 54.05585 | -151.60046 | 35076 ft | 504 kts | 98° |
| 2026-05-07 13:43 | 54.05243 | -151.48128 | 35085 ft | 504 kts | 98° |
| 2026-05-07 13:44 | 54.04888 | -151.36202 | 35073 ft | 504 kts | 99° |
| 2026-05-07 13:44 | 54.04523 | -151.24297 | 35074 ft | 505 kts | 99° |
| 2026-05-07 13:45 | 54.04144 | -151.12365 | 35076 ft | 505 kts | 99° |
| 2026-05-07 13:45 | 54.03753 | -151.00405 | 35080 ft | 506 kts | 99° |
| 2026-05-07 13:46 | 54.03350 | -150.88431 | 35072 ft | 506 kts | 100° |
| 2026-05-07 13:46 | 54.02938 | -150.76572 | 35077 ft | 506 kts | 100° |
| 2026-05-07 13:47 | 54.02510 | -150.64594 | 35073 ft | 508 kts | 100° |
| 2026-05-07 13:47 | 54.02068 | -150.52572 | 35079 ft | 510 kts | 100° |
| 2026-05-07 13:48 | 54.01614 | -150.40508 | 35079 ft | 512 kts | 100° |
| 2026-05-07 13:48 | 54.01147 | -150.28424 | 35067 ft | 512 kts | 100° |
| 2026-05-07 13:49 | 54.00667 | -150.16331 | 35066 ft | 512 kts | 100° |
| 2026-05-07 13:49 | 54.00258 | -150.06212 | 35069 ft | 512 kts | 100° |
| 2026-05-07 13:50 | 53.99728 | -149.94229 | 35077 ft | 511 kts | 101° |
| 2026-05-07 13:50 | 53.99033 | -149.82237 | 35072 ft | 510 kts | 102° |
| 2026-05-07 13:51 | 53.98294 | -149.70248 | 35037 ft | 509 kts | 102° |
| 2026-05-07 13:51 | 53.97562 | -149.58278 | 35067 ft | 509 kts | 102° |
| 2026-05-07 13:52 | 53.96833 | -149.46301 | 35081 ft | 510 kts | 102° |
| 2026-05-07 13:52 | 53.96096 | -149.34313 | 35078 ft | 511 kts | 102° |
| 2026-05-07 13:53 | 53.95345 | -149.22301 | 35078 ft | 512 kts | 102° |
| 2026-05-07 13:53 | 53.94584 | -149.10335 | 35053 ft | 513 kts | 102° |
| 2026-05-07 13:54 | 53.93806 | -148.98297 | 35081 ft | 514 kts | 103° |
| 2026-05-07 13:54 | 53.93014 | -148.86240 | 35085 ft | 514 kts | 103° |
| 2026-05-07 13:55 | 53.92209 | -148.74178 | 35086 ft | 515 kts | 103° |
| 2026-05-07 13:55 | 53.91392 | -148.62107 | 35085 ft | 514 kts | 103° |
| 2026-05-07 13:56 | 53.90564 | -148.50067 | 35065 ft | 513 kts | 103° |
| 2026-05-07 13:56 | 53.89725 | -148.38044 | 35078 ft | 513 kts | 103° |
| 2026-05-07 13:57 | 53.88874 | -148.26038 | 35085 ft | 514 kts | 103° |
| 2026-05-07 13:57 | 53.88008 | -148.14003 | 35076 ft | 514 kts | 103° |
| 2026-05-07 13:58 | 53.87131 | -148.01977 | 35087 ft | 515 kts | 103° |
| 2026-05-07 13:58 | 53.86242 | -147.89941 | 35085 ft | 515 kts | 104° |
| 2026-05-07 13:59 | 53.85339 | -147.77894 | 35088 ft | 516 kts | 104° |
| 2026-05-07 13:59 | 53.84423 | -147.65852 | 35088 ft | 516 kts | 104° |
| 2026-05-07 14:00 | 53.83494 | -147.53784 | 35084 ft | 517 kts | 104° |
| 2026-05-07 14:00 | 53.82559 | -147.41804 | 35062 ft | 516 kts | 104° |
| 2026-05-07 14:01 | 53.81609 | -147.29779 | 35091 ft | 515 kts | 104° |
| 2026-05-07 14:01 | 53.80647 | -147.17776 | 35093 ft | 514 kts | 104° |
| 2026-05-07 14:02 | 53.79675 | -147.05796 | 35089 ft | 514 kts | 104° |
| 2026-05-07 14:02 | 53.78691 | -146.93825 | 35089 ft | 513 kts | 104° |
| 2026-05-07 14:03 | 53.77697 | -146.81888 | 35078 ft | 512 kts | 104° |
| 2026-05-07 14:03 | 53.76693 | -146.69972 | 35093 ft | 512 kts | 104° |
| 2026-05-07 14:04 | 53.75674 | -146.58036 | 35105 ft | 513 kts | 104° |
| 2026-05-07 14:04 | 53.74644 | -146.46113 | 35099 ft | 514 kts | 104° |
| 2026-05-07 14:05 | 53.73606 | -146.34231 | 35103 ft | 514 kts | 104° |
| 2026-05-07 14:05 | 53.72549 | -146.22274 | 35099 ft | 514 kts | 105° |
| 2026-05-07 14:06 | 53.71481 | -146.10327 | 35104 ft | 514 kts | 105° |
| 2026-05-07 14:06 | 53.70401 | -145.98391 | 35105 ft | 514 kts | 105° |
| 2026-05-07 14:07 | 53.69310 | -145.86468 | 35106 ft | 514 kts | 105° |
| 2026-05-07 14:07 | 53.68208 | -145.74560 | 35089 ft | 513 kts | 105° |
| 2026-05-07 14:08 | 53.67796 | -145.70145 | 35104 ft | 513 kts | 105° |
| 2026-05-07 14:08 | 53.67569 | -145.67714 | 35105 ft | 513 kts | 105° |
| 2026-05-07 14:09 | 53.66451 | -145.55843 | 35107 ft | 512 kts | 105° |
| 2026-05-07 14:09 | 53.65320 | -145.43981 | 35112 ft | 513 kts | 105° |
| 2026-05-07 14:10 | 53.64174 | -145.32088 | 35114 ft | 514 kts | 105° |
| 2026-05-07 14:10 | 53.63018 | -145.20204 | 35101 ft | 515 kts | 105° |
| 2026-05-07 14:11 | 53.61848 | -145.08310 | 35124 ft | 515 kts | 105° |
| 2026-05-07 14:11 | 53.60665 | -144.96412 | 35125 ft | 515 kts | 105° |
| 2026-05-07 14:12 | 53.59469 | -144.84507 | 35119 ft | 516 kts | 105° |
| 2026-05-07 14:12 | 53.58262 | -144.72609 | 35133 ft | 515 kts | 106° |
| 2026-05-07 14:13 | 53.57044 | -144.60732 | 35120 ft | 514 kts | 106° |
| 2026-05-07 14:13 | 53.55819 | -144.48899 | 35130 ft | 513 kts | 106° |
| 2026-05-07 14:14 | 53.54580 | -144.37068 | 35135 ft | 513 kts | 106° |
| 2026-05-07 14:14 | 53.53333 | -144.25268 | 35147 ft | 513 kts | 106° |
| 2026-05-07 14:15 | 53.52078 | -144.13526 | 35141 ft | 514 kts | 106° |
| 2026-05-07 14:15 | 53.50804 | -144.01709 | 35148 ft | 514 kts | 106° |
| 2026-05-07 14:16 | 53.49509 | -143.89813 | 35151 ft | 515 kts | 106° |
| 2026-05-07 14:16 | 53.48216 | -143.78051 | 35153 ft | 516 kts | 106° |
| 2026-05-07 14:17 | 53.46901 | -143.66195 | 35153 ft | 516 kts | 106° |
| 2026-05-07 14:17 | 53.45575 | -143.54358 | 35126 ft | 516 kts | 106° |
| 2026-05-07 14:18 | 53.44240 | -143.42541 | 35153 ft | 514 kts | 107° |
| 2026-05-07 14:18 | 53.42898 | -143.30777 | 35160 ft | 513 kts | 107° |
| 2026-05-07 14:19 | 53.41545 | -143.19034 | 35165 ft | 513 kts | 107° |
| 2026-05-07 14:19 | 53.40182 | -143.07313 | 35166 ft | 512 kts | 107° |
| 2026-05-07 14:20 | 53.38818 | -142.95681 | 35161 ft | 511 kts | 107° |
| 2026-05-07 14:20 | 53.37436 | -142.84006 | 35170 ft | 510 kts | 107° |
| 2026-05-07 14:21 | 53.36047 | -142.72369 | 35180 ft | 509 kts | 107° |
| 2026-05-07 14:21 | 53.34645 | -142.60737 | 35181 ft | 509 kts | 107° |
| 2026-05-07 14:22 | 53.33236 | -142.49137 | 35183 ft | 509 kts | 107° |
| 2026-05-07 14:22 | 53.31816 | -142.37551 | 35179 ft | 508 kts | 107° |
| 2026-05-07 14:23 | 53.30386 | -142.25982 | 35189 ft | 508 kts | 107° |
| 2026-05-07 14:23 | 53.28945 | -142.14422 | 35189 ft | 508 kts | 107° |
| 2026-05-07 14:24 | 53.27502 | -142.02944 | 35199 ft | 508 kts | 107° |
| 2026-05-07 14:24 | 53.26038 | -141.91389 | 35182 ft | 508 kts | 107° |
| 2026-05-07 14:25 | 53.24566 | -141.79866 | 35199 ft | 507 kts | 107° |
| 2026-05-07 14:25 | 53.23083 | -141.68355 | 35205 ft | 508 kts | 108° |
| 2026-05-07 14:26 | 53.21584 | -141.56826 | 35219 ft | 509 kts | 108° |
| 2026-05-07 14:26 | 53.20071 | -141.45274 | 35218 ft | 510 kts | 108° |
| 2026-05-07 14:27 | 53.18543 | -141.33702 | 35204 ft | 511 kts | 108° |
| 2026-05-07 14:27 | 53.17005 | -141.22134 | 35214 ft | 510 kts | 108° |
| 2026-05-07 14:28 | 53.15457 | -141.10593 | 35222 ft | 510 kts | 108° |
| 2026-05-07 14:28 | 53.13899 | -140.99067 | 35220 ft | 510 kts | 108° |
| 2026-05-07 14:29 | 53.12333 | -140.87576 | 35220 ft | 509 kts | 108° |
| 2026-05-07 14:29 | 53.10765 | -140.76157 | 35226 ft | 508 kts | 108° |
| 2026-05-07 14:30 | 53.09179 | -140.64701 | 35232 ft | 508 kts | 108° |
| 2026-05-07 14:30 | 53.07583 | -140.53249 | 35234 ft | 507 kts | 108° |
| 2026-05-07 14:31 | 53.05974 | -140.41800 | 35229 ft | 509 kts | 108° |
| 2026-05-07 14:31 | 53.04351 | -140.30343 | 35223 ft | 509 kts | 108° |
| 2026-05-07 14:32 | 53.02729 | -140.18962 | 35243 ft | 510 kts | 109° |
| 2026-05-07 14:32 | 53.01082 | -140.07486 | 35245 ft | 510 kts | 109° |
| 2026-05-07 14:33 | 52.99301 | -139.96103 | 35250 ft | 507 kts | 113° |
| 2026-05-07 14:33 | 52.98207 | -139.90531 | 35401 ft | 509 kts | 114° |
| 2026-05-07 14:33 | 52.97089 | -139.84968 | 35733 ft | 507 kts | 114° |
| 2026-05-07 14:33 | 52.95970 | -139.79431 | 36111 ft | 504 kts | 114° |
| 2026-05-07 14:34 | 52.94861 | -139.73940 | 36514 ft | 501 kts | 114° |
| 2026-05-07 14:34 | 52.93762 | -139.68477 | 36868 ft | 499 kts | 114° |
| 2026-05-07 14:34 | 52.92665 | -139.63019 | 37127 ft | 499 kts | 114° |
| 2026-05-07 14:35 | 52.90460 | -139.52060 | 37256 ft | 502 kts | 114° |
| 2026-05-07 14:35 | 52.88622 | -139.42939 | 37248 ft | 500 kts | 114° |
| 2026-05-07 14:36 | 52.86421 | -139.32064 | 37223 ft | 497 kts | 115° |
| 2026-05-07 14:36 | 52.84221 | -139.21261 | 37241 ft | 495 kts | 115° |
| 2026-05-07 14:37 | 52.82008 | -139.10474 | 37265 ft | 495 kts | 115° |
| 2026-05-07 14:37 | 52.78655 | -138.94238 | 37261 ft | 500 kts | 115° |
| 2026-05-07 14:38 | 52.76405 | -138.83413 | 37246 ft | 503 kts | 115° |
| 2026-05-07 14:38 | 52.74120 | -138.72475 | 37268 ft | 505 kts | 115° |
| 2026-05-07 14:39 | 52.71816 | -138.61496 | 37268 ft | 506 kts | 115° |
| 2026-05-07 14:39 | 52.69503 | -138.50539 | 37269 ft | 506 kts | 115° |
| 2026-05-07 14:40 | 52.67181 | -138.39594 | 37272 ft | 505 kts | 115° |
| 2026-05-07 14:40 | 52.64853 | -138.28683 | 37268 ft | 503 kts | 115° |
| 2026-05-07 14:41 | 52.62527 | -138.17847 | 37269 ft | 502 kts | 115° |
| 2026-05-07 14:41 | 52.60191 | -138.07020 | 37276 ft | 501 kts | 115° |
| 2026-05-07 14:42 | 52.57850 | -137.96231 | 37273 ft | 501 kts | 115° |
| 2026-05-07 14:42 | 52.55504 | -137.85473 | 37262 ft | 500 kts | 115° |
| 2026-05-07 14:43 | 52.53145 | -137.74707 | 37281 ft | 500 kts | 115° |
| 2026-05-07 14:43 | 52.50788 | -137.64012 | 37281 ft | 501 kts | 115° |
| 2026-05-07 14:44 | 52.48404 | -137.53246 | 37280 ft | 503 kts | 115° |
| 2026-05-07 14:44 | 52.45997 | -137.42439 | 37288 ft | 505 kts | 115° |
| 2026-05-07 14:45 | 52.43579 | -137.31625 | 37287 ft | 506 kts | 115° |
| 2026-05-07 14:45 | 52.41144 | -137.20801 | 37288 ft | 507 kts | 115° |
| 2026-05-07 14:46 | 52.38694 | -137.09962 | 37291 ft | 507 kts | 115° |
| 2026-05-07 14:46 | 52.36236 | -136.99143 | 37286 ft | 507 kts | 115° |
| 2026-05-07 14:47 | 52.33785 | -136.88411 | 37277 ft | 506 kts | 115° |
| 2026-05-07 14:47 | 52.31319 | -136.77669 | 37281 ft | 505 kts | 115° |
| 2026-05-07 14:48 | 52.28843 | -136.66934 | 37293 ft | 504 kts | 115° |
| 2026-05-07 14:48 | 52.26362 | -136.56238 | 37291 ft | 503 kts | 115° |
| 2026-05-07 14:49 | 52.23875 | -136.45565 | 37264 ft | 503 kts | 115° |
| 2026-05-07 14:49 | 52.21379 | -136.34909 | 37284 ft | 502 kts | 115° |
| 2026-05-07 14:50 | 52.18877 | -136.24281 | 37295 ft | 502 kts | 115° |
| 2026-05-07 14:50 | 52.16366 | -136.13663 | 37310 ft | 502 kts | 115° |
| 2026-05-07 14:51 | 52.13840 | -136.03041 | 37291 ft | 504 kts | 116° |
| 2026-05-07 14:51 | 52.11314 | -135.92465 | 37289 ft | 505 kts | 116° |
| 2026-05-07 14:52 | 52.08755 | -135.81805 | 37288 ft | 507 kts | 116° |
| 2026-05-07 14:52 | 52.06183 | -135.71139 | 37293 ft | 507 kts | 116° |
| 2026-05-07 14:53 | 52.03595 | -135.60454 | 37309 ft | 508 kts | 116° |
| 2026-05-07 14:53 | 52.00998 | -135.49785 | 37292 ft | 507 kts | 116° |
| 2026-05-07 14:54 | 51.98056 | -135.39463 | 37295 ft | 502 kts | 123° |
| 2026-05-07 14:54 | 51.94731 | -135.29529 | 37292 ft | 501 kts | 123° |
| 2026-05-07 14:55 | 51.91397 | -135.19626 | 37296 ft | 500 kts | 123° |
| 2026-05-07 14:55 | 51.88086 | -135.09727 | 37278 ft | 500 kts | 123° |
| 2026-05-07 14:56 | 51.84785 | -134.99838 | 37294 ft | 500 kts | 123° |
| 2026-05-07 14:56 | 51.81474 | -134.89950 | 37298 ft | 500 kts | 123° |
| 2026-05-07 14:57 | 51.78155 | -134.80081 | 37296 ft | 500 kts | 123° |
| 2026-05-07 14:57 | 51.74824 | -134.70223 | 37268 ft | 500 kts | 123° |
| 2026-05-07 14:58 | 51.71487 | -134.60383 | 37284 ft | 500 kts | 123° |
| 2026-05-07 14:58 | 51.68139 | -134.50551 | 37300 ft | 500 kts | 123° |
| 2026-05-07 14:59 | 51.64800 | -134.40784 | 37299 ft | 501 kts | 123° |
| 2026-05-07 14:59 | 51.61428 | -134.30960 | 37282 ft | 501 kts | 123° |
| 2026-05-07 15:00 | 51.58048 | -134.21152 | 37298 ft | 502 kts | 123° |
| 2026-05-07 15:00 | 51.54644 | -134.11309 | 37297 ft | 504 kts | 123° |
| 2026-05-07 15:01 | 51.51222 | -134.01454 | 37296 ft | 505 kts | 123° |
| 2026-05-07 15:01 | 51.47785 | -133.91594 | 37275 ft | 506 kts | 123° |
| 2026-05-07 15:02 | 51.44338 | -133.81745 | 37301 ft | 507 kts | 123° |
| 2026-05-07 15:02 | 51.40873 | -133.71881 | 37292 ft | 508 kts | 123° |
| 2026-05-07 15:03 | 51.37397 | -133.62024 | 37294 ft | 508 kts | 124° |
| 2026-05-07 15:03 | 51.33918 | -133.52198 | 37270 ft | 508 kts | 124° |
| 2026-05-07 15:04 | 51.30432 | -133.42391 | 37290 ft | 507 kts | 124° |
| 2026-05-07 15:04 | 51.26936 | -133.32593 | 37292 ft | 508 kts | 124° |
| 2026-05-07 15:05 | 51.23430 | -133.22807 | 37291 ft | 508 kts | 124° |
| 2026-05-07 15:05 | 51.19911 | -133.13019 | 37267 ft | 508 kts | 124° |
| 2026-05-07 15:06 | 51.16387 | -133.03258 | 37285 ft | 508 kts | 124° |
| 2026-05-07 15:06 | 51.12853 | -132.93503 | 37290 ft | 509 kts | 124° |
| 2026-05-07 15:07 | 51.09308 | -132.83758 | 37289 ft | 509 kts | 124° |
| 2026-05-07 15:07 | 51.05751 | -132.74017 | 37268 ft | 510 kts | 124° |
| 2026-05-07 15:08 | 51.04895 | -132.71680 | 37271 ft | 510 kts | 124° |
| 2026-05-07 15:08 | 51.03710 | -132.68444 | 37280 ft | 510 kts | 124° |
| 2026-05-07 15:09 | 51.00138 | -132.58721 | 37289 ft | 510 kts | 124° |
| 2026-05-07 15:09 | 50.96579 | -132.49069 | 37286 ft | 510 kts | 124° |
| 2026-05-07 15:10 | 50.92986 | -132.39359 | 37286 ft | 510 kts | 124° |
| 2026-05-07 15:10 | 50.89388 | -132.29675 | 37280 ft | 510 kts | 124° |
| 2026-05-07 15:11 | 50.85786 | -132.20016 | 37286 ft | 509 kts | 124° |
| 2026-05-07 15:11 | 50.82158 | -132.10326 | 37290 ft | 513 kts | 124° |
| 2026-05-07 15:12 | 50.78495 | -132.00579 | 37288 ft | 516 kts | 124° |
| 2026-05-07 15:12 | 50.74816 | -131.90823 | 37282 ft | 518 kts | 124° |
| 2026-05-07 15:13 | 50.71118 | -131.81053 | 37279 ft | 518 kts | 124° |
| 2026-05-07 15:13 | 50.67422 | -131.71327 | 37278 ft | 516 kts | 125° |
| 2026-05-07 15:14 | 50.63725 | -131.61633 | 37278 ft | 515 kts | 125° |
| 2026-05-07 15:14 | 50.60033 | -131.51989 | 37273 ft | 513 kts | 125° |
| 2026-05-07 15:15 | 50.56347 | -131.42399 | 37279 ft | 512 kts | 125° |
| 2026-05-07 15:15 | 50.52682 | -131.32899 | 37279 ft | 511 kts | 125° |
| 2026-05-07 15:16 | 50.48988 | -131.23358 | 37254 ft | 511 kts | 125° |
| 2026-05-07 15:16 | 50.45292 | -131.13847 | 37275 ft | 510 kts | 125° |
| 2026-05-07 15:17 | 50.41581 | -131.04332 | 37278 ft | 510 kts | 125° |
| 2026-05-07 15:17 | 50.37866 | -130.94841 | 37270 ft | 511 kts | 125° |
| 2026-05-07 15:18 | 50.34141 | -130.85358 | 37254 ft | 511 kts | 125° |
| 2026-05-07 15:18 | 50.30406 | -130.75884 | 37271 ft | 511 kts | 125° |
| 2026-05-07 15:19 | 50.26665 | -130.66430 | 37270 ft | 512 kts | 126° |
| 2026-05-07 15:19 | 50.22908 | -130.56969 | 37265 ft | 512 kts | 126° |
| 2026-05-07 15:20 | 50.19777 | -130.49113 | 37249 ft | 512 kts | 126° |
| 2026-05-07 15:20 | 50.16009 | -130.39685 | 37263 ft | 512 kts | 126° |
| 2026-05-07 15:21 | 50.12228 | -130.30261 | 37268 ft | 512 kts | 126° |
| 2026-05-07 15:21 | 50.08458 | -130.20897 | 37267 ft | 513 kts | 126° |
| 2026-05-07 15:22 | 50.04655 | -130.11481 | 37261 ft | 516 kts | 126° |
| 2026-05-07 15:22 | 50.00825 | -130.02004 | 37267 ft | 520 kts | 124° |
| 2026-05-07 15:23 | 49.97569 | -129.91879 | 37291 ft | 526 kts | 116° |
| 2026-05-07 15:23 | 49.94661 | -129.81449 | 37261 ft | 526 kts | 116° |
| 2026-05-07 15:24 | 49.91738 | -129.71043 | 37258 ft | 525 kts | 116° |
| 2026-05-07 15:24 | 49.88781 | -129.60690 | 37256 ft | 524 kts | 117° |
| 2026-05-07 15:25 | 49.85809 | -129.50394 | 37253 ft | 522 kts | 117° |
| 2026-05-07 15:25 | 49.82838 | -129.40148 | 37246 ft | 521 kts | 117° |
| 2026-05-07 15:26 | 49.79882 | -129.29990 | 37236 ft | 521 kts | 117° |
| 2026-05-07 15:26 | 49.76902 | -129.19788 | 37251 ft | 520 kts | 117° |
| 2026-05-07 15:27 | 49.73915 | -129.09600 | 37253 ft | 520 kts | 117° |
| 2026-05-07 15:27 | 49.70912 | -128.99404 | 37242 ft | 521 kts | 117° |
| 2026-05-07 15:28 | 49.67898 | -128.89218 | 37226 ft | 522 kts | 117° |
| 2026-05-07 15:28 | 49.64868 | -128.79016 | 37237 ft | 523 kts | 117° |
| 2026-05-07 15:29 | 49.61819 | -128.68793 | 37242 ft | 525 kts | 117° |
| 2026-05-07 15:29 | 49.58755 | -128.58562 | 37237 ft | 526 kts | 117° |
| 2026-05-07 15:30 | 49.55675 | -128.48324 | 37218 ft | 527 kts | 117° |
| 2026-05-07 15:30 | 49.52587 | -128.38099 | 37236 ft | 527 kts | 117° |
| 2026-05-07 15:31 | 49.49487 | -128.27879 | 37233 ft | 528 kts | 117° |
| 2026-05-07 15:31 | 49.46373 | -128.17652 | 37228 ft | 528 kts | 117° |
| 2026-05-07 15:32 | 49.43272 | -128.07514 | 37223 ft | 527 kts | 117° |
| 2026-05-07 15:32 | 49.40145 | -127.97331 | 37221 ft | 527 kts | 118° |
| 2026-05-07 15:33 | 49.37011 | -127.87167 | 37216 ft | 526 kts | 118° |
| 2026-05-07 15:33 | 49.33872 | -127.77029 | 37214 ft | 526 kts | 118° |
| 2026-05-07 15:34 | 49.30726 | -127.66911 | 37202 ft | 525 kts | 118° |
| 2026-05-07 15:34 | 49.27574 | -127.56815 | 37208 ft | 525 kts | 118° |
| 2026-05-07 15:35 | 49.24414 | -127.46735 | 37211 ft | 526 kts | 118° |
| 2026-05-07 15:35 | 49.21240 | -127.36650 | 37204 ft | 526 kts | 118° |
| 2026-05-07 15:36 | 49.18057 | -127.26579 | 37188 ft | 526 kts | 118° |
| 2026-05-07 15:36 | 49.14866 | -127.16520 | 37191 ft | 526 kts | 118° |
| 2026-05-07 15:37 | 49.11659 | -127.06455 | 37198 ft | 527 kts | 118° |
| 2026-05-07 15:37 | 49.08445 | -126.96404 | 37197 ft | 528 kts | 118° |
| 2026-05-07 15:38 | 49.05233 | -126.86405 | 37188 ft | 528 kts | 118° |
| 2026-05-07 15:38 | 49.01993 | -126.76354 | 37218 ft | 529 kts | 118° |
| 2026-05-07 15:39 | 48.98731 | -126.66277 | 37201 ft | 531 kts | 118° |
| 2026-05-07 15:39 | 48.95451 | -126.56184 | 37193 ft | 532 kts | 118° |
| 2026-05-07 15:40 | 48.92161 | -126.46102 | 37184 ft | 533 kts | 118° |
| 2026-05-07 15:40 | 48.88859 | -126.36023 | 37213 ft | 533 kts | 118° |
| 2026-05-07 15:41 | 48.85537 | -126.25920 | 37193 ft | 534 kts | 118° |
| 2026-05-07 15:41 | 48.82231 | -126.15909 | 37198 ft | 534 kts | 118° |
| 2026-05-07 15:42 | 48.78889 | -126.05829 | 37204 ft | 534 kts | 118° |
| 2026-05-07 15:42 | 48.75540 | -125.95767 | 37183 ft | 535 kts | 119° |
| 2026-05-07 15:43 | 48.72178 | -125.85705 | 37211 ft | 535 kts | 119° |
| 2026-05-07 15:43 | 48.68812 | -125.75669 | 37215 ft | 534 kts | 119° |
| 2026-05-07 15:44 | 48.65436 | -125.65648 | 37196 ft | 535 kts | 118° |
| 2026-05-07 15:44 | 48.62046 | -125.55620 | 37200 ft | 536 kts | 119° |
| 2026-05-07 15:45 | 48.58644 | -125.45595 | 37216 ft | 536 kts | 119° |
| 2026-05-07 15:45 | 48.55232 | -125.35582 | 37190 ft | 537 kts | 118° |
| 2026-05-07 15:46 | 48.50107 | -125.20616 | 37204 ft | 537 kts | 119° |
| 2026-05-07 15:47 | 48.46669 | -125.10621 | 37207 ft | 537 kts | 119° |
| 2026-05-07 15:47 | 48.43221 | -125.00639 | 37206 ft | 537 kts | 119° |
| 2026-05-07 15:48 | 48.39760 | -124.90656 | 37206 ft | 537 kts | 119° |
| 2026-05-07 15:48 | 48.36299 | -124.80709 | 37210 ft | 537 kts | 119° |
| 2026-05-07 15:49 | 48.32824 | -124.70757 | 37210 ft | 537 kts | 119° |
| 2026-05-07 15:49 | 48.29252 | -124.60899 | 37214 ft | 537 kts | 124° |
| 2026-05-07 15:50 | 48.25061 | -124.51649 | 37230 ft | 536 kts | 127° |
| 2026-05-07 15:50 | 48.20770 | -124.42491 | 37223 ft | 537 kts | 127° |
| 2026-05-07 15:51 | 48.16497 | -124.33310 | 37214 ft | 538 kts | 127° |
| 2026-05-07 15:51 | 48.12230 | -124.24098 | 37213 ft | 538 kts | 127° |
| 2026-05-07 15:52 | 48.07977 | -124.14890 | 37218 ft | 538 kts | 127° |
| 2026-05-07 15:52 | 48.03732 | -124.05758 | 37223 ft | 538 kts | 127° |
| 2026-05-07 15:53 | 47.99443 | -123.96577 | 37196 ft | 538 kts | 127° |
| 2026-05-07 15:53 | 47.95149 | -123.87426 | 37206 ft | 538 kts | 127° |
| 2026-05-07 15:54 | 47.90864 | -123.78305 | 37208 ft | 536 kts | 127° |
| 2026-05-07 15:54 | 47.86582 | -123.69203 | 37202 ft | 536 kts | 127° |
| 2026-05-07 15:55 | 47.82334 | -123.60085 | 37182 ft | 534 kts | 127° |
| 2026-05-07 15:55 | 47.78050 | -123.51154 | 37207 ft | 533 kts | 128° |
| 2026-05-07 15:56 | 47.73687 | -123.42231 | 37192 ft | 535 kts | 127° |
| 2026-05-07 15:56 | 47.69399 | -123.33137 | 37172 ft | 538 kts | 127° |
| 2026-05-07 15:57 | 47.65083 | -123.24032 | 37162 ft | 541 kts | 127° |
| 2026-05-07 15:57 | 47.60691 | -123.14954 | 37204 ft | 541 kts | 127° |
| 2026-05-07 15:58 | 47.56314 | -123.05862 | 37202 ft | 542 kts | 127° |
| 2026-05-07 15:58 | 47.51926 | -122.96785 | 37204 ft | 543 kts | 127° |
| 2026-05-07 15:59 | 47.47519 | -122.87717 | 37207 ft | 542 kts | 127° |
| 2026-05-07 15:59 | 47.43109 | -122.78673 | 37212 ft | 542 kts | 127° |
| 2026-05-07 16:00 | 47.38747 | -122.69754 | 37204 ft | 539 kts | 127° |
| 2026-05-07 16:00 | 47.34362 | -122.60813 | 37216 ft | 539 kts | 127° |
| 2026-05-07 16:01 | 47.29949 | -122.51849 | 37224 ft | 541 kts | 127° |
| 2026-05-07 16:01 | 47.25510 | -122.42857 | 37192 ft | 542 kts | 127° |
| 2026-05-07 16:02 | 47.21073 | -122.33899 | 37199 ft | 542 kts | 127° |
| 2026-05-07 16:02 | 47.16629 | -122.24954 | 37196 ft | 541 kts | 128° |
| 2026-05-07 16:03 | 47.12214 | -122.16105 | 37203 ft | 540 kts | 128° |
| 2026-05-07 16:03 | 47.07776 | -122.07228 | 37211 ft | 539 kts | 128° |
| 2026-05-07 16:04 | 47.03340 | -121.98391 | 37202 ft | 538 kts | 128° |
| 2026-05-07 16:04 | 46.98886 | -121.89535 | 37175 ft | 541 kts | 128° |
| 2026-05-07 16:05 | 46.94398 | -121.80677 | 37148 ft | 543 kts | 127° |
| 2026-05-07 16:05 | 46.89906 | -121.71779 | 37148 ft | 543 kts | 127° |
| 2026-05-07 16:06 | 46.85404 | -121.62917 | 37125 ft | 543 kts | 128° |
| 2026-05-07 16:06 | 46.80902 | -121.54079 | 37171 ft | 542 kts | 127° |
| 2026-05-07 16:07 | 46.76387 | -121.45248 | 37112 ft | 542 kts | 128° |
| 2026-05-07 16:07 | 46.72624 | -121.37939 | 37105 ft | 542 kts | 128° |
| 2026-05-07 16:08 | 46.68110 | -121.29172 | 37069 ft | 540 kts | 128° |
| 2026-05-07 16:08 | 46.63604 | -121.20432 | 37087 ft | 539 kts | 128° |
| 2026-05-07 16:09 | 46.59094 | -121.11715 | 37084 ft | 539 kts | 128° |
| 2026-05-07 16:09 | 46.54573 | -121.03007 | 37071 ft | 539 kts | 128° |
| 2026-05-07 16:10 | 46.50038 | -120.94309 | 37061 ft | 540 kts | 128° |
| 2026-05-07 16:10 | 46.45505 | -120.85630 | 37053 ft | 540 kts | 128° |
| 2026-05-07 16:11 | 46.40955 | -120.76954 | 37059 ft | 539 kts | 128° |
| 2026-05-07 16:11 | 46.36409 | -120.68309 | 37063 ft | 540 kts | 128° |
| 2026-05-07 16:12 | 46.31836 | -120.59637 | 37056 ft | 543 kts | 128° |
| 2026-05-07 16:12 | 46.27243 | -120.50954 | 37050 ft | 545 kts | 128° |
| 2026-05-07 16:13 | 46.22630 | -120.42262 | 37051 ft | 545 kts | 128° |
| 2026-05-07 16:13 | 46.18020 | -120.33598 | 37037 ft | 544 kts | 128° |
| 2026-05-07 16:14 | 46.13399 | -120.24950 | 37055 ft | 543 kts | 128° |
| 2026-05-07 16:14 | 46.08790 | -120.16344 | 37055 ft | 542 kts | 128° |
| 2026-05-07 16:15 | 46.04184 | -120.07768 | 37049 ft | 540 kts | 128° |
| 2026-05-07 16:15 | 45.99631 | -119.99170 | 37066 ft | 539 kts | 125° |
| 2026-05-07 16:16 | 45.95697 | -119.90014 | 37067 ft | 538 kts | 120° |
| 2026-05-07 16:16 | 45.91880 | -119.80773 | 37062 ft | 537 kts | 120° |
| 2026-05-07 16:17 | 45.88037 | -119.71563 | 37065 ft | 538 kts | 121° |
| 2026-05-07 16:17 | 45.84184 | -119.62442 | 37106 ft | 539 kts | 121° |
| 2026-05-07 16:18 | 45.80259 | -119.53211 | 37091 ft | 544 kts | 121° |
| 2026-05-07 16:18 | 45.76306 | -119.43939 | 37088 ft | 546 kts | 121° |
| 2026-05-07 16:19 | 45.72336 | -119.34653 | 37088 ft | 547 kts | 121° |
| 2026-05-07 16:19 | 45.68349 | -119.25358 | 37070 ft | 547 kts | 121° |
| 2026-05-07 16:20 | 45.64369 | -119.16107 | 37059 ft | 546 kts | 121° |
| 2026-05-07 16:20 | 45.60389 | -119.06890 | 37062 ft | 544 kts | 121° |
| 2026-05-07 16:21 | 45.56413 | -118.97709 | 37089 ft | 542 kts | 121° |
| 2026-05-07 16:21 | 45.52445 | -118.88579 | 37088 ft | 541 kts | 121° |
| 2026-05-07 16:22 | 45.48481 | -118.79485 | 37101 ft | 540 kts | 121° |
| 2026-05-07 16:22 | 45.44503 | -118.70388 | 37107 ft | 544 kts | 121° |
| 2026-05-07 16:23 | 45.40502 | -118.61266 | 37098 ft | 548 kts | 121° |
| 2026-05-07 16:23 | 45.36453 | -118.52069 | 37084 ft | 549 kts | 121° |
| 2026-05-07 16:24 | 45.32392 | -118.42881 | 37088 ft | 548 kts | 121° |
| 2026-05-07 16:24 | 45.28342 | -118.33741 | 37079 ft | 546 kts | 121° |
| 2026-05-07 16:25 | 45.24298 | -118.24638 | 37076 ft | 545 kts | 121° |
| 2026-05-07 16:25 | 45.20253 | -118.15566 | 37082 ft | 544 kts | 121° |
| 2026-05-07 16:26 | 45.16202 | -118.06514 | 37088 ft | 543 kts | 122° |
| 2026-05-07 16:26 | 45.12082 | -117.97583 | 37078 ft | 541 kts | 122° |
| 2026-05-07 16:27 | 45.08080 | -117.88559 | 37116 ft | 541 kts | 121° |
| 2026-05-07 16:27 | 45.04054 | -117.79520 | 37084 ft | 544 kts | 122° |
| 2026-05-07 16:28 | 44.99973 | -117.70487 | 37061 ft | 546 kts | 122° |
| 2026-05-07 16:28 | 44.95856 | -117.61445 | 37093 ft | 548 kts | 122° |
| 2026-05-07 16:29 | 44.91731 | -117.52404 | 37080 ft | 546 kts | 122° |
| 2026-05-07 16:29 | 44.87613 | -117.43418 | 37077 ft | 544 kts | 122° |
| 2026-05-07 16:30 | 44.83509 | -117.34471 | 37048 ft | 543 kts | 122° |
| 2026-05-07 16:30 | 44.79406 | -117.25550 | 37054 ft | 542 kts | 122° |
| 2026-05-07 16:31 | 44.75299 | -117.16653 | 37052 ft | 542 kts | 122° |
| 2026-05-07 16:31 | 44.71175 | -117.07751 | 37058 ft | 544 kts | 122° |
| 2026-05-07 16:32 | 44.67041 | -116.98840 | 37062 ft | 545 kts | 122° |
| 2026-05-07 16:32 | 44.62903 | -116.89979 | 37046 ft | 546 kts | 122° |
| 2026-05-07 16:33 | 44.58734 | -116.81056 | 37042 ft | 546 kts | 122° |
| 2026-05-07 16:33 | 44.54563 | -116.72160 | 37034 ft | 546 kts | 122° |
| 2026-05-07 16:34 | 44.50386 | -116.63280 | 37044 ft | 545 kts | 122° |
| 2026-05-07 16:34 | 44.46214 | -116.54437 | 37044 ft | 544 kts | 122° |
| 2026-05-07 16:35 | 44.42037 | -116.45606 | 37032 ft | 544 kts | 122° |
| 2026-05-07 16:35 | 44.37861 | -116.36807 | 37048 ft | 542 kts | 122° |
| 2026-05-07 16:36 | 44.33684 | -116.28022 | 37047 ft | 543 kts | 122° |
| 2026-05-07 16:36 | 44.29489 | -116.19246 | 37036 ft | 544 kts | 122° |
| 2026-05-07 16:37 | 44.25281 | -116.10481 | 37035 ft | 543 kts | 122° |
| 2026-05-07 16:37 | 44.21092 | -116.01736 | 37036 ft | 543 kts | 122° |
| 2026-05-07 16:38 | 44.16885 | -115.92995 | 37018 ft | 542 kts | 123° |
| 2026-05-07 16:38 | 44.12697 | -115.84355 | 37019 ft | 541 kts | 122° |
| 2026-05-07 16:39 | 44.08483 | -115.75674 | 37015 ft | 541 kts | 123° |
| 2026-05-07 16:39 | 44.04280 | -115.67017 | 37023 ft | 540 kts | 123° |
| 2026-05-07 16:40 | 44.00052 | -115.58346 | 36991 ft | 541 kts | 123° |
| 2026-05-07 16:40 | 43.95828 | -115.49732 | 37027 ft | 540 kts | 123° |
| 2026-05-07 16:41 | 43.91584 | -115.41076 | 37022 ft | 544 kts | 123° |
| 2026-05-07 16:41 | 43.87314 | -115.32398 | 37019 ft | 545 kts | 123° |
| 2026-05-07 16:42 | 43.83052 | -115.23750 | 37029 ft | 541 kts | 123° |
| 2026-05-07 16:42 | 43.78842 | -115.15111 | 36978 ft | 541 kts | 123° |
| 2026-05-07 16:43 | 43.74564 | -115.06524 | 37018 ft | 545 kts | 123° |
| 2026-05-07 16:43 | 43.70266 | -114.97970 | 36973 ft | 541 kts | 123° |
| 2026-05-07 16:44 | 43.65983 | -114.89457 | 37013 ft | 540 kts | 123° |
| 2026-05-07 16:44 | 43.61739 | -114.80851 | 36994 ft | 545 kts | 122° |
| 2026-05-07 16:45 | 43.57436 | -114.72188 | 37016 ft | 549 kts | 123° |
| 2026-05-07 16:45 | 43.53026 | -114.63583 | 36988 ft | 549 kts | 123° |
| 2026-05-07 16:46 | 43.48646 | -114.54962 | 37007 ft | 548 kts | 123° |
| 2026-05-07 16:46 | 43.44296 | -114.46351 | 36970 ft | 546 kts | 122° |
| 2026-05-07 16:47 | 43.39996 | -114.37770 | 36981 ft | 543 kts | 123° |
| 2026-05-07 16:47 | 43.37813 | -114.33535 | 37101 ft | 542 kts | 123° |
| 2026-05-07 16:47 | 43.35633 | -114.29307 | 37075 ft | 542 kts | 123° |
| 2026-05-07 16:48 | 43.31292 | -114.20861 | 37051 ft | 541 kts | 123° |
| 2026-05-07 16:48 | 43.26983 | -114.12458 | 37008 ft | 542 kts | 123° |
| 2026-05-07 16:49 | 43.22638 | -114.04009 | 36997 ft | 541 kts | 123° |
| 2026-05-07 16:49 | 43.18288 | -113.95550 | 36987 ft | 546 kts | 123° |
| 2026-05-07 16:50 | 43.13879 | -113.87017 | 36969 ft | 549 kts | 123° |
| 2026-05-07 16:50 | 43.09444 | -113.78468 | 36967 ft | 550 kts | 123° |
| 2026-05-07 16:51 | 43.05006 | -113.69938 | 36953 ft | 550 kts | 123° |
| 2026-05-07 16:51 | 43.00578 | -113.61449 | 36966 ft | 548 kts | 123° |
| 2026-05-07 16:52 | 42.96896 | -113.54406 | 36964 ft | 546 kts | 123° |
| 2026-05-07 16:52 | 42.92484 | -113.45990 | 36961 ft | 545 kts | 123° |
| 2026-05-07 16:53 | 42.88078 | -113.37608 | 36963 ft | 543 kts | 123° |
| 2026-05-07 16:53 | 42.83671 | -113.29248 | 37002 ft | 543 kts | 123° |
| 2026-05-07 16:54 | 42.79241 | -113.20863 | 36986 ft | 547 kts | 123° |
| 2026-05-07 16:54 | 42.74782 | -113.12456 | 36986 ft | 548 kts | 123° |
| 2026-05-07 16:55 | 42.70317 | -113.04059 | 36987 ft | 548 kts | 123° |
| 2026-05-07 16:55 | 42.65849 | -112.95680 | 36986 ft | 546 kts | 123° |
| 2026-05-07 16:56 | 42.61395 | -112.87349 | 36983 ft | 543 kts | 123° |
| 2026-05-07 16:56 | 42.54837 | -112.75125 | 37020 ft | 539 kts | 123° |
| 2026-05-07 16:57 | 42.50423 | -112.66909 | 37007 ft | 538 kts | 123° |
| 2026-05-07 16:57 | 42.46069 | -112.58859 | 36999 ft | 534 kts | 123° |
| 2026-05-07 16:58 | 42.41681 | -112.50760 | 37030 ft | 533 kts | 123° |
| 2026-05-07 16:58 | 42.37351 | -112.42774 | 37035 ft | 536 kts | 123° |
| 2026-05-07 16:59 | 42.32899 | -112.34584 | 37043 ft | 543 kts | 123° |
| 2026-05-07 16:59 | 42.28470 | -112.26347 | 37038 ft | 545 kts | 123° |
| 2026-05-07 17:00 | 42.23938 | -112.18119 | 37040 ft | 545 kts | 124° |
| 2026-05-07 17:00 | 42.19446 | -112.10002 | 37056 ft | 542 kts | 124° |
| 2026-05-07 17:01 | 42.14954 | -112.01856 | 37047 ft | 539 kts | 123° |
| 2026-05-07 17:01 | 42.10496 | -111.93754 | 37061 ft | 537 kts | 124° |
| 2026-05-07 17:02 | 42.06035 | -111.85685 | 37063 ft | 537 kts | 124° |
| 2026-05-07 17:02 | 42.01566 | -111.77627 | 37091 ft | 537 kts | 124° |
| 2026-05-07 17:03 | 41.97077 | -111.69570 | 37078 ft | 539 kts | 124° |
| 2026-05-07 17:03 | 41.92589 | -111.61514 | 37056 ft | 539 kts | 123° |
| 2026-05-07 17:04 | 41.88087 | -111.53457 | 37035 ft | 538 kts | 123° |
| 2026-05-07 17:04 | 41.83594 | -111.45426 | 37028 ft | 538 kts | 124° |
| 2026-05-07 17:05 | 41.79083 | -111.37418 | 36992 ft | 537 kts | 124° |
| 2026-05-07 17:05 | 41.74586 | -111.29430 | 37028 ft | 537 kts | 124° |
| 2026-05-07 17:06 | 41.70118 | -111.21514 | 37039 ft | 536 kts | 124° |
| 2026-05-07 17:06 | 41.65586 | -111.13513 | 37058 ft | 536 kts | 124° |
| 2026-05-07 17:07 | 41.61070 | -111.05571 | 37034 ft | 536 kts | 124° |
| 2026-05-07 17:07 | 41.56555 | -110.97640 | 37035 ft | 536 kts | 124° |
| 2026-05-07 17:08 | 41.52072 | -110.89776 | 37040 ft | 536 kts | 124° |
| 2026-05-07 17:08 | 41.47522 | -110.81893 | 37091 ft | 535 kts | 126° |
| 2026-05-07 17:09 | 41.42974 | -110.74027 | 37094 ft | 536 kts | 124° |
| 2026-05-07 17:09 | 41.38460 | -110.66093 | 37078 ft | 537 kts | 124° |
| 2026-05-07 17:10 | 41.33917 | -110.58172 | 37166 ft | 539 kts | 124° |
| 2026-05-07 17:10 | 41.29346 | -110.50265 | 37186 ft | 539 kts | 124° |
| 2026-05-07 17:11 | 41.24760 | -110.42366 | 37179 ft | 541 kts | 124° |
| 2026-05-07 17:11 | 41.20155 | -110.34444 | 37150 ft | 541 kts | 124° |
| 2026-05-07 17:12 | 41.15550 | -110.26543 | 37104 ft | 541 kts | 124° |
| 2026-05-07 17:12 | 41.10945 | -110.18662 | 37073 ft | 539 kts | 124° |
| 2026-05-07 17:13 | 41.06348 | -110.10809 | 37081 ft | 539 kts | 124° |
| 2026-05-07 17:13 | 41.01745 | -110.02967 | 37058 ft | 539 kts | 124° |
| 2026-05-07 17:14 | 40.97335 | -109.94973 | 37074 ft | 537 kts | 121° |
| 2026-05-07 17:14 | 40.93191 | -109.86841 | 37082 ft | 535 kts | 120° |
| 2026-05-07 17:15 | 40.89038 | -109.78685 | 37113 ft | 534 kts | 120° |
| 2026-05-07 17:15 | 40.84858 | -109.70549 | 37102 ft | 535 kts | 120° |
| 2026-05-07 17:16 | 40.80662 | -109.62406 | 37094 ft | 536 kts | 121° |
| 2026-05-07 17:16 | 40.76444 | -109.54277 | 37125 ft | 536 kts | 121° |
| 2026-05-07 17:17 | 40.72222 | -109.46154 | 37126 ft | 536 kts | 121° |
| 2026-05-07 17:17 | 40.67997 | -109.38055 | 37179 ft | 536 kts | 121° |
| 2026-05-07 17:18 | 40.63774 | -109.29962 | 37177 ft | 536 kts | 121° |
| 2026-05-07 17:18 | 40.59545 | -109.21882 | 37159 ft | 536 kts | 121° |
| 2026-05-07 17:19 | 40.55306 | -109.13808 | 37157 ft | 535 kts | 121° |
| 2026-05-07 17:19 | 40.51069 | -109.05768 | 37153 ft | 537 kts | 122° |
| 2026-05-07 17:20 | 40.46818 | -108.97715 | 37142 ft | 535 kts | 122° |
| 2026-05-07 17:20 | 40.42578 | -108.89697 | 37119 ft | 535 kts | 122° |
| 2026-05-07 17:21 | 40.38369 | -108.81775 | 37118 ft | 532 kts | 122° |
| 2026-05-07 17:21 | 40.34150 | -108.73824 | 37134 ft | 531 kts | 122° |
| 2026-05-07 17:22 | 40.29925 | -108.65893 | 37140 ft | 530 kts | 122° |
| 2026-05-07 17:22 | 40.25693 | -108.57977 | 37127 ft | 530 kts | 122° |
| 2026-05-07 17:23 | 40.21465 | -108.50090 | 37143 ft | 529 kts | 122° |
| 2026-05-07 17:23 | 40.17252 | -108.42252 | 37170 ft | 529 kts | 122° |
| 2026-05-07 17:24 | 40.13018 | -108.34386 | 37162 ft | 529 kts | 122° |
| 2026-05-07 17:24 | 40.08941 | -108.26837 | 37118 ft | 528 kts | 123° |
| 2026-05-07 17:25 | 40.04708 | -108.19015 | 37183 ft | 527 kts | 123° |
| 2026-05-07 17:25 | 40.00662 | -108.11557 | 37201 ft | 526 kts | 123° |
| 2026-05-07 17:26 | 39.96462 | -108.03834 | 37215 ft | 525 kts | 123° |
| 2026-05-07 17:26 | 39.92238 | -107.96090 | 37195 ft | 523 kts | 123° |
| 2026-05-07 17:27 | 39.88028 | -107.88383 | 37205 ft | 521 kts | 123° |
| 2026-05-07 17:27 | 39.83822 | -107.80700 | 37190 ft | 521 kts | 123° |
| 2026-05-07 17:28 | 39.79616 | -107.73039 | 37235 ft | 520 kts | 123° |
| 2026-05-07 17:28 | 39.75402 | -107.65389 | 37199 ft | 520 kts | 123° |
| 2026-05-07 17:29 | 39.71191 | -107.57764 | 37227 ft | 519 kts | 123° |
| 2026-05-07 17:29 | 39.66974 | -107.50134 | 37228 ft | 519 kts | 123° |
| 2026-05-07 17:30 | 39.62763 | -107.42551 | 37241 ft | 515 kts | 124° |
| 2026-05-07 17:30 | 39.58559 | -107.34988 | 37153 ft | 516 kts | 124° |
| 2026-05-07 17:31 | 39.54358 | -107.27444 | 37222 ft | 518 kts | 124° |
| 2026-05-07 17:31 | 39.50136 | -107.19864 | 37230 ft | 519 kts | 124° |
| 2026-05-07 17:32 | 39.45890 | -107.12278 | 37222 ft | 520 kts | 124° |
| 2026-05-07 17:32 | 39.42354 | -107.05979 | 37220 ft | 521 kts | 124° |
| 2026-05-07 17:33 | 39.37361 | -106.97106 | 37175 ft | 522 kts | 125° |
| 2026-05-07 17:33 | 39.33082 | -106.89512 | 37200 ft | 523 kts | 125° |
| 2026-05-07 17:34 | 39.28794 | -106.81911 | 37269 ft | 522 kts | 125° |
| 2026-05-07 17:34 | 39.24525 | -106.74410 | 37225 ft | 520 kts | 126° |
| 2026-05-07 17:35 | 39.20253 | -106.66899 | 37243 ft | 519 kts | 125° |
| 2026-05-07 17:35 | 39.16000 | -106.59377 | 37240 ft | 517 kts | 126° |
| 2026-05-07 17:36 | 39.11739 | -106.51904 | 37268 ft | 518 kts | 125° |
| 2026-05-07 17:36 | 39.08188 | -106.45694 | 37243 ft | 517 kts | 126° |
| 2026-05-07 17:37 | 39.03926 | -106.38277 | 37267 ft | 516 kts | 125° |
| 2026-05-07 17:37 | 38.99660 | -106.30839 | 37265 ft | 516 kts | 126° |
| 2026-05-07 17:38 | 38.95370 | -106.23381 | 37207 ft | 518 kts | 126° |
| 2026-05-07 17:38 | 38.91075 | -106.15949 | 37237 ft | 519 kts | 126° |
| 2026-05-07 17:39 | 38.86792 | -106.08540 | 37256 ft | 522 kts | 126° |
| 2026-05-07 17:39 | 38.82451 | -106.01043 | 37257 ft | 524 kts | 126° |
| 2026-05-07 17:40 | 38.78084 | -105.93524 | 37070 ft | 528 kts | 127° |
| 2026-05-07 17:40 | 38.73679 | -105.85963 | 37034 ft | 530 kts | 127° |
| 2026-05-07 17:41 | 38.69260 | -105.78393 | 37031 ft | 530 kts | 127° |
| 2026-05-07 17:41 | 38.64834 | -105.70825 | 37008 ft | 530 kts | 127° |
| 2026-05-07 17:42 | 38.60416 | -105.63289 | 36992 ft | 529 kts | 128° |
| 2026-05-07 17:42 | 38.55998 | -105.55771 | 36976 ft | 527 kts | 128° |
| 2026-05-07 17:43 | 38.51631 | -105.48358 | 36951 ft | 522 kts | 128° |
| 2026-05-07 17:43 | 38.47277 | -105.40981 | 36943 ft | 518 kts | 128° |
| 2026-05-07 17:44 | 38.42948 | -105.33664 | 36909 ft | 515 kts | 128° |
| 2026-05-07 17:44 | 38.38633 | -105.26393 | 36941 ft | 514 kts | 129° |
| 2026-05-07 17:45 | 38.34324 | -105.19146 | 36899 ft | 512 kts | 129° |
| 2026-05-07 17:45 | 38.30020 | -105.11920 | 36947 ft | 512 kts | 129° |
| 2026-05-07 17:46 | 38.25717 | -105.04713 | 36959 ft | 512 kts | 129° |
| 2026-05-07 17:46 | 38.21402 | -104.97500 | 37002 ft | 512 kts | 129° |
| 2026-05-07 17:47 | 38.17083 | -104.90298 | 37043 ft | 514 kts | 129° |
| 2026-05-07 17:47 | 38.12731 | -104.83058 | 37055 ft | 516 kts | 130° |
| 2026-05-07 17:48 | 38.08364 | -104.75808 | 37063 ft | 517 kts | 130° |
| 2026-05-07 17:48 | 38.03978 | -104.68543 | 37071 ft | 519 kts | 130° |
| 2026-05-07 17:49 | 37.99582 | -104.61277 | 37062 ft | 520 kts | 130° |
| 2026-05-07 17:49 | 37.95181 | -104.54017 | 37042 ft | 519 kts | 130° |
| 2026-05-07 17:50 | 37.90803 | -104.46818 | 37044 ft | 519 kts | 130° |
| 2026-05-07 17:50 | 37.86405 | -104.39592 | 37061 ft | 518 kts | 130° |
| 2026-05-07 17:51 | 37.82008 | -104.32386 | 37062 ft | 517 kts | 130° |
| 2026-05-07 17:51 | 37.77619 | -104.25210 | 37042 ft | 516 kts | 130° |
| 2026-05-07 17:52 | 37.73224 | -104.18046 | 37072 ft | 516 kts | 131° |
| 2026-05-07 17:52 | 37.68816 | -104.10871 | 37065 ft | 517 kts | 131° |
| 2026-05-07 17:53 | 37.64403 | -104.03701 | 37057 ft | 517 kts | 131° |
| 2026-05-07 17:53 | 37.59982 | -103.96537 | 37070 ft | 518 kts | 131° |
| 2026-05-07 17:54 | 37.55549 | -103.89368 | 37062 ft | 519 kts | 131° |
| 2026-05-07 17:54 | 37.51113 | -103.82210 | 37082 ft | 519 kts | 131° |
| 2026-05-07 17:55 | 37.46656 | -103.75034 | 37072 ft | 520 kts | 131° |
| 2026-05-07 17:55 | 37.42192 | -103.67862 | 37065 ft | 520 kts | 131° |
| 2026-05-07 17:56 | 37.37726 | -103.60708 | 37063 ft | 519 kts | 132° |
| 2026-05-07 17:56 | 37.33271 | -103.53583 | 37068 ft | 518 kts | 132° |
| 2026-05-07 17:57 | 37.29570 | -103.47668 | 37085 ft | 518 kts | 132° |
| 2026-05-07 17:57 | 37.24350 | -103.39348 | 37073 ft | 518 kts | 132° |
| 2026-05-07 17:58 | 37.19916 | -103.32300 | 37062 ft | 518 kts | 132° |
| 2026-05-07 17:58 | 37.15445 | -103.25209 | 37054 ft | 517 kts | 132° |
| 2026-05-07 17:59 | 37.10980 | -103.18143 | 37057 ft | 516 kts | 133° |
| 2026-05-07 17:59 | 37.06516 | -103.11100 | 37062 ft | 517 kts | 133° |
| 2026-05-07 18:00 | 37.02048 | -103.04051 | 37043 ft | 517 kts | 133° |
| 2026-05-07 18:00 | 36.97575 | -102.97012 | 37042 ft | 516 kts | 133° |
| 2026-05-07 18:01 | 36.93111 | -102.90008 | 37036 ft | 515 kts | 133° |
| 2026-05-07 18:01 | 36.88642 | -102.83008 | 37035 ft | 515 kts | 133° |
| 2026-05-07 18:02 | 36.81941 | -102.72543 | 37039 ft | 514 kts | 133° |
| 2026-05-07 18:03 | 36.77468 | -102.65573 | 37035 ft | 514 kts | 134° |
| 2026-05-07 18:03 | 36.72991 | -102.58611 | 37032 ft | 514 kts | 134° |
| 2026-05-07 18:04 | 36.68513 | -102.51662 | 37034 ft | 515 kts | 134° |
| 2026-05-07 18:04 | 36.64049 | -102.44750 | 37042 ft | 515 kts | 134° |
| 2026-05-07 18:05 | 36.59554 | -102.37805 | 37048 ft | 516 kts | 134° |
| 2026-05-07 18:05 | 36.55044 | -102.30849 | 37039 ft | 516 kts | 135° |
| 2026-05-07 18:06 | 36.50528 | -102.23901 | 37053 ft | 517 kts | 135° |
| 2026-05-07 18:06 | 36.45995 | -102.16941 | 37047 ft | 518 kts | 135° |
| 2026-05-07 18:07 | 36.41452 | -102.09978 | 37055 ft | 519 kts | 135° |
| 2026-05-07 18:07 | 36.36898 | -102.03012 | 37030 ft | 519 kts | 136° |
| 2026-05-07 18:08 | 36.32344 | -101.96062 | 37069 ft | 519 kts | 136° |
| 2026-05-07 18:08 | 36.27783 | -101.89115 | 37058 ft | 520 kts | 136° |
| 2026-05-07 18:09 | 36.23212 | -101.82167 | 37076 ft | 520 kts | 136° |
| 2026-05-07 18:09 | 36.18661 | -101.75263 | 37070 ft | 520 kts | 136° |
| 2026-05-07 18:10 | 36.14081 | -101.68330 | 37079 ft | 520 kts | 137° |
| 2026-05-07 18:10 | 36.09493 | -101.61399 | 37082 ft | 521 kts | 137° |
| 2026-05-07 18:11 | 36.04893 | -101.54465 | 37095 ft | 522 kts | 137° |
| 2026-05-07 18:11 | 36.00278 | -101.47521 | 37092 ft | 523 kts | 137° |
| 2026-05-07 18:12 | 35.95650 | -101.40571 | 37082 ft | 524 kts | 137° |
| 2026-05-07 18:12 | 35.91018 | -101.33627 | 37109 ft | 524 kts | 139° |
| 2026-05-07 18:13 | 35.86368 | -101.26676 | 37119 ft | 526 kts | 139° |
| 2026-05-07 18:13 | 35.81699 | -101.19710 | 37130 ft | 528 kts | 139° |
| 2026-05-07 18:14 | 35.77013 | -101.12731 | 37131 ft | 529 kts | 139° |
| 2026-05-07 18:14 | 35.72322 | -101.05756 | 37116 ft | 530 kts | 139° |
| 2026-05-07 18:15 | 35.67618 | -100.98777 | 37145 ft | 530 kts | 139° |
| 2026-05-07 18:15 | 35.62910 | -100.91807 | 37146 ft | 529 kts | 139° |
| 2026-05-07 18:16 | 35.58205 | -100.84856 | 37139 ft | 529 kts | 139° |
| 2026-05-07 18:16 | 35.53519 | -100.77947 | 37128 ft | 529 kts | 139° |
| 2026-05-07 18:17 | 35.48811 | -100.71020 | 37127 ft | 528 kts | 139° |
| 2026-05-07 18:17 | 35.44104 | -100.64108 | 37107 ft | 528 kts | 140° |
| 2026-05-07 18:18 | 35.39395 | -100.57208 | 37111 ft | 527 kts | 140° |
| 2026-05-07 18:18 | 35.34678 | -100.50310 | 37100 ft | 528 kts | 140° |
| 2026-05-07 18:19 | 35.29950 | -100.43409 | 37081 ft | 528 kts | 140° |
| 2026-05-07 18:19 | 35.25222 | -100.36520 | 37111 ft | 528 kts | 140° |
| 2026-05-07 18:20 | 35.20495 | -100.29647 | 37115 ft | 528 kts | 140° |
| 2026-05-07 18:20 | 35.15763 | -100.22781 | 37104 ft | 528 kts | 140° |
| 2026-05-07 18:21 | 35.11049 | -100.15953 | 37118 ft | 529 kts | 140° |
| 2026-05-07 18:21 | 35.06301 | -100.09086 | 37094 ft | 529 kts | 141° |
| 2026-05-07 18:22 | 35.01400 | -100.02507 | 37110 ft | 515 kts | 149° |
| 2026-05-07 18:22 | 34.95794 | -99.97333 | 37121 ft | 496 kts | 160° |
| 2026-05-07 18:23 | 34.90774 | -99.94039 | 37126 ft | 487 kts | 165° |
| 2026-05-07 18:23 | 34.84733 | -99.90301 | 37118 ft | 487 kts | 165° |
| 2026-05-07 18:24 | 34.78706 | -99.86528 | 37112 ft | 487 kts | 165° |
| 2026-05-07 18:24 | 34.72702 | -99.82741 | 37104 ft | 487 kts | 165° |
| 2026-05-07 18:25 | 34.66729 | -99.78973 | 37126 ft | 486 kts | 165° |
| 2026-05-07 18:25 | 34.60721 | -99.75190 | 37105 ft | 486 kts | 165° |
| 2026-05-07 18:26 | 34.54721 | -99.71420 | 37103 ft | 485 kts | 165° |
| 2026-05-07 18:26 | 34.48731 | -99.67663 | 37106 ft | 484 kts | 165° |
| 2026-05-07 18:27 | 34.42753 | -99.63919 | 37116 ft | 483 kts | 166° |
| 2026-05-07 18:27 | 34.36780 | -99.60147 | 37116 ft | 488 kts | 162° |
| 2026-05-07 18:27 | 34.33959 | -99.57723 | 37090 ft | 507 kts | 151° |
| 2026-05-07 18:28 | 34.31433 | -99.54635 | 37104 ft | 524 kts | 141° |
| 2026-05-07 18:28 | 34.29313 | -99.50965 | 37122 ft | 540 kts | 131° |
| 2026-05-07 18:28 | 34.27441 | -99.47013 | 37122 ft | 543 kts | 129° |
| 2026-05-07 18:29 | 34.23790 | -99.38976 | 37117 ft | 545 kts | 129° |
| 2026-05-07 18:29 | 34.20107 | -99.31035 | 37125 ft | 545 kts | 130° |
| 2026-05-07 18:30 | 34.16323 | -99.23098 | 37123 ft | 546 kts | 130° |
| 2026-05-07 18:30 | 34.12508 | -99.15169 | 37089 ft | 546 kts | 130° |
| 2026-05-07 18:31 | 34.08694 | -99.07243 | 37120 ft | 546 kts | 130° |
| 2026-05-07 18:31 | 34.04875 | -98.99312 | 37124 ft | 547 kts | 130° |
| 2026-05-07 18:32 | 34.01054 | -98.91390 | 37135 ft | 547 kts | 130° |
| 2026-05-07 18:32 | 33.97221 | -98.83463 | 37035 ft | 549 kts | 130° |
| 2026-05-07 18:32 | 33.95271 | -98.79449 | 36179 ft | 559 kts | 130° |
| 2026-05-07 18:33 | 33.93314 | -98.75412 | 35382 ft | 558 kts | 130° |
| 2026-05-07 18:33 | 33.91359 | -98.71375 | 34470 ft | 559 kts | 130° |
| 2026-05-07 18:33 | 33.89396 | -98.67332 | 33401 ft | 561 kts | 130° |
| 2026-05-07 18:33 | 33.87425 | -98.63284 | 32366 ft | 561 kts | 129° |
| 2026-05-07 18:34 | 33.85448 | -98.59233 | 31314 ft | 561 kts | 129° |
| 2026-05-07 18:34 | 33.83467 | -98.55181 | 30430 ft | 560 kts | 129° |
| 2026-05-07 18:34 | 33.81535 | -98.51220 | 29711 ft | 552 kts | 129° |
| 2026-05-07 18:34 | 33.79601 | -98.47259 | 28973 ft | 545 kts | 129° |
| 2026-05-07 18:35 | 33.77667 | -98.43306 | 28287 ft | 538 kts | 128° |
| 2026-05-07 18:35 | 33.75804 | -98.39505 | 27645 ft | 531 kts | 128° |
| 2026-05-07 18:35 | 33.73912 | -98.35653 | 27001 ft | 526 kts | 128° |
| 2026-05-07 18:35 | 33.72085 | -98.31939 | 26407 ft | 520 kts | 128° |
| 2026-05-07 18:36 | 33.70251 | -98.28217 | 25781 ft | 516 kts | 127° |
| 2026-05-07 18:36 | 33.68436 | -98.24534 | 25169 ft | 511 kts | 127° |
| 2026-05-07 18:36 | 33.66630 | -98.20872 | 24728 ft | 503 kts | 127° |
| 2026-05-07 18:36 | 33.64882 | -98.17318 | 24534 ft | 489 kts | 127° |
| 2026-05-07 18:37 | 33.63168 | -98.13845 | 24221 ft | 480 kts | 127° |
| 2026-05-07 18:37 | 33.61464 | -98.10416 | 23714 ft | 477 kts | 127° |
| 2026-05-07 18:37 | 33.59764 | -98.07006 | 23132 ft | 474 kts | 126° |
| 2026-05-07 18:37 | 33.58082 | -98.03631 | 22615 ft | 470 kts | 126° |
| 2026-05-07 18:38 | 33.56411 | -98.00277 | 22112 ft | 465 kts | 126° |
| 2026-05-07 18:38 | 33.54759 | -97.96962 | 21620 ft | 461 kts | 126° |
| 2026-05-07 18:38 | 33.53122 | -97.93678 | 21130 ft | 457 kts | 126° |
| 2026-05-07 18:38 | 33.51496 | -97.90420 | 20649 ft | 453 kts | 126° |
| 2026-05-07 18:39 | 33.49885 | -97.87192 | 20169 ft | 450 kts | 126° |
| 2026-05-07 18:39 | 33.48287 | -97.83987 | 19698 ft | 447 kts | 125° |
| 2026-05-07 18:39 | 33.46701 | -97.80803 | 19213 ft | 444 kts | 125° |
| 2026-05-07 18:39 | 33.45123 | -97.77640 | 18731 ft | 441 kts | 125° |
| 2026-05-07 18:40 | 33.43554 | -97.74496 | 18182 ft | 439 kts | 125° |
| 2026-05-07 18:40 | 33.41995 | -97.71376 | 17669 ft | 435 kts | 125° |
| 2026-05-07 18:40 | 33.40449 | -97.68283 | 17185 ft | 431 kts | 125° |
| 2026-05-07 18:40 | 33.38920 | -97.65229 | 16872 ft | 422 kts | 126° |
| 2026-05-07 18:41 | 33.37229 | -97.62448 | 16461 ft | 406 kts | 139° |
| 2026-05-07 18:41 | 33.35188 | -97.60213 | 16327 ft | 388 kts | 148° |
| 2026-05-07 18:41 | 33.33022 | -97.58320 | 16287 ft | 383 kts | 153° |
| 2026-05-07 18:41 | 33.30742 | -97.56740 | 16069 ft | 375 kts | 161° |
| 2026-05-07 18:42 | 33.28405 | -97.55383 | 15748 ft | 373 kts | 162° |
| 2026-05-07 18:42 | 33.26061 | -97.54055 | 15410 ft | 372 kts | 162° |
| 2026-05-07 18:42 | 33.23729 | -97.52738 | 15118 ft | 370 kts | 162° |
| 2026-05-07 18:42 | 33.21402 | -97.51420 | 14822 ft | 368 kts | 162° |
| 2026-05-07 18:43 | 33.19099 | -97.50110 | 14528 ft | 367 kts | 162° |
| 2026-05-07 18:43 | 33.16797 | -97.48797 | 14245 ft | 366 kts | 162° |
| 2026-05-07 18:43 | 33.14505 | -97.47485 | 13943 ft | 364 kts | 162° |
| 2026-05-07 18:43 | 33.12224 | -97.46179 | 13642 ft | 363 kts | 161° |
| 2026-05-07 18:44 | 33.09955 | -97.44879 | 13350 ft | 360 kts | 161° |
| 2026-05-07 18:44 | 33.07704 | -97.43590 | 13084 ft | 358 kts | 161° |
| 2026-05-07 18:44 | 33.05464 | -97.42307 | 12787 ft | 356 kts | 161° |
| 2026-05-07 18:44 | 33.03236 | -97.41032 | 12504 ft | 354 kts | 161° |
| 2026-05-07 18:45 | 33.01021 | -97.39764 | 12235 ft | 352 kts | 161° |
| 2026-05-07 18:45 | 32.98814 | -97.38503 | 11953 ft | 351 kts | 160° |
| 2026-05-07 18:45 | 32.96622 | -97.37250 | 11695 ft | 348 kts | 160° |
| 2026-05-07 18:45 | 32.94468 | -97.36020 | 11430 ft | 347 kts | 160° |
| 2026-05-07 18:46 | 32.92277 | -97.34769 | 11185 ft | 342 kts | 160° |
| 2026-05-07 18:46 | 32.90170 | -97.33565 | 10881 ft | 338 kts | 160° |
| 2026-05-07 18:46 | 32.88063 | -97.32364 | 10529 ft | 335 kts | 160° |
| 2026-05-07 18:46 | 32.85999 | -97.31184 | 10402 ft | 324 kts | 160° |
| 2026-05-07 18:47 | 32.83989 | -97.30036 | 10251 ft | 315 kts | 160° |
| 2026-05-07 18:47 | 32.82041 | -97.28925 | 10117 ft | 306 kts | 160° |
| 2026-05-07 18:47 | 32.80153 | -97.27850 | 10001 ft | 298 kts | 160° |
| 2026-05-07 18:47 | 32.78282 | -97.26788 | 9676 ft | 296 kts | 160° |
| 2026-05-07 18:48 | 32.76456 | -97.25751 | 9579 ft | 286 kts | 160° |
| 2026-05-07 18:48 | 32.74694 | -97.24748 | 9489 ft | 276 kts | 160° |
| 2026-05-07 18:48 | 32.72993 | -97.23781 | 9393 ft | 266 kts | 160° |
| 2026-05-07 18:48 | 32.71354 | -97.22849 | 9240 ft | 257 kts | 160° |
| 2026-05-07 18:49 | 32.69755 | -97.21943 | 9011 ft | 253 kts | 160° |
| 2026-05-07 18:49 | 32.68186 | -97.21054 | 8644 ft | 248 kts | 160° |
| 2026-05-07 18:49 | 32.66613 | -97.20167 | 8128 ft | 253 kts | 159° |
| 2026-05-07 18:49 | 32.65027 | -97.19269 | 7840 ft | 251 kts | 159° |
| 2026-05-07 18:50 | 32.63462 | -97.18382 | 7586 ft | 249 kts | 159° |
| 2026-05-07 18:50 | 32.61923 | -97.17453 | 7245 ft | 247 kts | 147° |
| 2026-05-07 18:50 | 32.60860 | -97.15863 | 6658 ft | 252 kts | 107° |
| 2026-05-07 18:50 | 32.60778 | -97.13820 | 6157 ft | 247 kts | 73° |
| 2026-05-07 18:51 | 32.61377 | -97.11954 | 5763 ft | 239 kts | 59° |
| 2026-05-07 18:51 | 32.62194 | -97.10266 | 5368 ft | 232 kts | 56° |
| 2026-05-07 18:51 | 32.63014 | -97.08656 | 5019 ft | 226 kts | 56° |
| 2026-05-07 18:51 | 32.63919 | -97.07192 | 4559 ft | 222 kts | 39° |
| 2026-05-07 18:52 | 32.65211 | -97.06234 | 4242 ft | 216 kts | 28° |
| 2026-05-07 18:52 | 32.66579 | -97.05591 | 3955 ft | 210 kts | 6° |
| 2026-05-07 18:52 | 32.67989 | -97.05572 | 3893 ft | 198 kts | 1° |
| 2026-05-07 18:52 | 32.69341 | -97.05575 | 3808 ft | 193 kts | 0° |
| 2026-05-07 18:53 | 32.70680 | -97.05571 | 3712 ft | 191 kts | 1° |
| 2026-05-07 18:53 | 32.72018 | -97.05565 | 3574 ft | 194 kts | 1° |
| 2026-05-07 18:53 | 32.73378 | -97.05555 | 3372 ft | 196 kts | 1° |
| 2026-05-07 18:53 | 32.74739 | -97.05550 | 3108 ft | 194 kts | 1° |
| 2026-05-07 18:54 | 32.76061 | -97.05543 | 2929 ft | 188 kts | 1° |
| 2026-05-07 18:54 | 32.77370 | -97.05538 | 2657 ft | 188 kts | 2° |
| 2026-05-07 18:54 | 32.78654 | -97.05525 | 2438 ft | 181 kts | 1° |
| 2026-05-07 18:54 | 32.79867 | -97.05528 | 2195 ft | 168 kts | 1° |
| 2026-05-07 18:55 | 32.80992 | -97.05521 | 1955 ft | 153 kts | 2° |
| 2026-05-07 18:55 | 32.81994 | -97.05515 | 1773 ft | 138 kts | 1° |
| 2026-05-07 18:55 | 32.82974 | -97.05510 | 1586 ft | 142 kts | 0° |
| 2026-05-07 18:55 | 32.83962 | -97.05504 | 1382 ft | 142 kts | 2° |
| 2026-05-07 18:56 | 32.84941 | -97.05499 | 1206 ft | 140 kts | 2° |
| 2026-05-07 18:56 | 32.85908 | -97.05494 | 1024 ft | 140 kts | 2° |
| 2026-05-07 18:56 | 32.86879 | -97.05482 | 827 ft | 138 kts | 1° |
| 2026-05-07 18:56 | 32.87828 | -97.05489 | 651 ft | 138 kts | 2° |
| 2026-05-07 18:57 | 32.88732 | -97.05473 | 599 ft | 118 kts | 358° |
| 2026-05-07 18:57 | 32.89400 | -97.05473 | 617 ft | 74 kts | 0° |
| 2026-05-07 18:57 | 32.89767 | -97.05469 | 619 ft | 36 kts | 7° |
| 2026-05-07 18:57 | 32.89978 | -97.05372 | 621 ft | 28 kts | 30° |
| 2026-05-07 18:58 | 32.90064 | -97.05313 | 617 ft | 12 kts | 30° |
| 2026-05-07 18:58 | 32.90115 | -97.05234 | 615 ft | 14 kts | 84° |
| 2026-05-07 18:58 | 32.90117 | -97.05120 | 604 ft | 14 kts | 89° |
| 2026-05-07 18:58 | 32.90117 | -97.05002 | 603 ft | 14 kts | 90° |
| 2026-05-07 18:59 | 32.90116 | -97.04883 | 604 ft | 14 kts | 90° |
| 2026-05-07 18:59 | 32.90111 | -97.04772 | 602 ft | 9 kts | 115° |
| 2026-05-07 18:59 | 32.90050 | -97.04757 | 603 ft | 10 kts | 184° |
| 2026-05-07 18:59 | 32.89980 | -97.04761 | 604 ft | 11 kts | 180° |
| 2026-05-07 19:00 | 32.89896 | -97.04761 | 602 ft | 13 kts | 180° |
| 2026-05-07 19:00 | 32.89794 | -97.04762 | 602 ft | 15 kts | 181° |
| 2026-05-07 19:00 | 32.89689 | -97.04764 | 603 ft | 15 kts | 179° |
| 2026-05-07 19:00 | 32.89583 | -97.04763 | 602 ft | 16 kts | 179° |
| 2026-05-07 19:01 | 32.89467 | -97.04761 | 600 ft | 7 kts | 179° |
| 2026-05-07 19:01 | 32.89434 | -97.04724 | 610 ft | 8 kts | 100° |
| 2026-05-07 19:01 | 32.89430 | -97.04660 | 602 ft | 8 kts | 94° |
| 2026-05-07 19:01 | 32.89428 | -97.04580 | 603 ft | 12 kts | 91° |
| 2026-05-07 19:02 | 32.89430 | -97.04480 | 603 ft | 2 kts | 65° |
| 2026-05-07 19:02 | 32.89449 | -97.04471 | 603 ft | 5 kts | 20° |
| 2026-05-07 19:02 | 32.89493 | -97.04463 | 603 ft | 8 kts | 349° |
| 2026-05-07 19:02 | 32.89506 | -97.04464 | 603 ft | 0 kts | 0° |